PWSweather.com
Personal Weather Stations
Station Observations
DL5ARK
SonnebergDE

SonnebergDE

Lat: 50.34904861, Lon: 11.18112087

Elevation: 1214

Station Type: Selfmade

http://www.sumbarg.de

High Low Average
Temperature 79.9°F26.6°C 54.2°F12.3°C 66.3°F19.1°C
Dew Point 70.8°F21.6°C 57.6°F14.2°C 64.7°F18.2°C
Winds 11.8 mph 19.0 kmh Calm Calm 2.0 mph SW3.2 kmh SW
Wind Gusts 11.8 mph19.0 kmh -- 2.0 mph3.2 kmh
Humidity 86% 48% 70%
Pressure 29.97 in1014.9 mb 29.79 in1008.8 mb -
Precipitation 0.18 in4.6 mm - -
Hour Temp Dew Point Humidity Winds Wind Gusts Pressure Precip Precip Rate Daily Precip Total
12:00 AM 59.0°F15.0°C 60.7°F15.9°C 69% 0.4 mph ESE0.6 kmh ESE 0.4 mph0.6 kmh 29.81 in1009.5 mb 0.00 in0.0 mm 0.00 in0.0 mm 0.00 in0.0 mm
12:06 AM 59.1°F15.1°C 60.8°F16.0°C 69% Calm Calm -- 29.81 in1009.5 mb 0.00 in0.0 mm 0.00 in0.0 mm 0.00 in0.0 mm
12:09 AM 59.1°F15.1°C 60.4°F15.8°C 69% Calm Calm -- 29.81 in1009.5 mb 0.00 in0.0 mm 0.00 in0.0 mm 0.00 in0.0 mm
12:12 AM 59.1°F15.1°C 60.4°F15.8°C 69% Calm Calm -- 29.80 in1009.1 mb 0.00 in0.0 mm 0.00 in0.0 mm 0.00 in0.0 mm
12:15 AM 58.7°F14.8°C 60.1°F15.6°C 69% Calm Calm -- 29.81 in1009.5 mb 0.00 in0.0 mm 0.00 in0.0 mm 0.00 in0.0 mm
12:18 AM 58.3°F14.6°C 60.0°F15.6°C 69% Calm Calm -- 29.81 in1009.5 mb 0.00 in0.0 mm 0.00 in0.0 mm 0.00 in0.0 mm
12:21 AM 58.9°F14.9°C 60.3°F15.7°C 69% Calm Calm -- 29.80 in1009.1 mb 0.00 in0.0 mm 0.00 in0.0 mm 0.00 in0.0 mm
12:24 AM 58.3°F14.6°C 60.4°F15.8°C 70% Calm Calm -- 29.80 in1009.1 mb 0.00 in0.0 mm 0.00 in0.0 mm 0.00 in0.0 mm
12:27 AM 58.4°F14.7°C 60.4°F15.8°C 71% Calm Calm -- 29.80 in1009.1 mb 0.00 in0.0 mm 0.00 in0.0 mm 0.00 in0.0 mm
12:30 AM 58.2°F14.6°C 60.3°F15.7°C 70% Calm Calm -- 29.80 in1009.1 mb 0.00 in0.0 mm 0.00 in0.0 mm 0.00 in0.0 mm
12:33 AM 57.9°F14.4°C 60.1°F15.6°C 70% Calm Calm -- 29.80 in1009.1 mb 0.00 in0.0 mm 0.00 in0.0 mm 0.00 in0.0 mm
12:36 AM 57.5°F14.2°C 59.8°F15.4°C 70% Calm Calm -- 29.80 in1009.1 mb 0.00 in0.0 mm 0.00 in0.0 mm 0.00 in0.0 mm
12:39 AM 57.7°F14.3°C 59.4°F15.2°C 70% Calm Calm -- 29.80 in1009.1 mb 0.00 in0.0 mm 0.00 in0.0 mm 0.00 in0.0 mm
12:42 AM 57.5°F14.2°C 59.7°F15.4°C 70% Calm Calm -- 29.80 in1009.1 mb 0.00 in0.0 mm 0.00 in0.0 mm 0.00 in0.0 mm
12:45 AM 58.0°F14.4°C 59.6°F15.3°C 70% Calm Calm -- 29.80 in1009.1 mb 0.00 in0.0 mm 0.00 in0.0 mm 0.00 in0.0 mm
12:48 AM 58.3°F14.6°C 59.6°F15.3°C 70% Calm Calm -- 29.80 in1009.1 mb 0.00 in0.0 mm 0.00 in0.0 mm 0.00 in0.0 mm
12:51 AM 58.1°F14.5°C 59.8°F15.4°C 71% Calm Calm -- 29.80 in1009.1 mb 0.00 in0.0 mm 0.00 in0.0 mm 0.00 in0.0 mm
12:54 AM 57.9°F14.4°C 59.8°F15.4°C 71% Calm Calm -- 29.80 in1009.1 mb 0.00 in0.0 mm 0.00 in0.0 mm 0.00 in0.0 mm
12:57 AM 57.4°F14.1°C 59.4°F15.2°C 70% Calm Calm -- 29.81 in1009.5 mb 0.00 in0.0 mm 0.00 in0.0 mm 0.00 in0.0 mm
01:00 AM 57.7°F14.3°C 59.0°F15.0°C 70% Calm Calm -- 29.81 in1009.5 mb 0.00 in0.0 mm 0.00 in0.0 mm 0.00 in0.0 mm
01:03 AM 58.4°F14.7°C 59.4°F15.2°C 71% Calm Calm -- 29.81 in1009.5 mb 0.00 in0.0 mm 0.00 in0.0 mm 0.00 in0.0 mm
01:06 AM 58.2°F14.6°C 59.7°F15.4°C 71% Calm Calm -- 29.81 in1009.5 mb 0.00 in0.0 mm 0.00 in0.0 mm 0.00 in0.0 mm
01:09 AM 57.4°F14.1°C 59.4°F15.2°C 71% Calm Calm -- 29.81 in1009.5 mb 0.00 in0.0 mm 0.00 in0.0 mm 0.00 in0.0 mm
01:12 AM 57.4°F14.1°C 59.3°F15.2°C 71% Calm Calm -- 29.81 in1009.5 mb 0.00 in0.0 mm 0.00 in0.0 mm 0.00 in0.0 mm
01:15 AM 57.5°F14.2°C 58.9°F14.9°C 71% Calm Calm -- 29.80 in1009.1 mb 0.00 in0.0 mm 0.00 in0.0 mm 0.00 in0.0 mm
01:18 AM 57.3°F14.1°C 59.0°F15.0°C 71% Calm Calm -- 29.80 in1009.1 mb 0.00 in0.0 mm 0.00 in0.0 mm 0.00 in0.0 mm
01:21 AM 57.1°F13.9°C 59.0°F15.0°C 71% Calm Calm -- 29.80 in1009.1 mb 0.00 in0.0 mm 0.00 in0.0 mm 0.00 in0.0 mm
01:24 AM 56.9°F13.8°C 58.9°F14.9°C 71% Calm Calm -- 29.80 in1009.1 mb 0.00 in0.0 mm 0.00 in0.0 mm 0.00 in0.0 mm
01:27 AM 56.5°F13.6°C 58.8°F14.9°C 71% Calm Calm -- 29.81 in1009.5 mb 0.00 in0.0 mm 0.00 in0.0 mm 0.00 in0.0 mm
01:30 AM 57.2°F14.0°C 58.8°F14.9°C 71% Calm Calm -- 29.80 in1009.1 mb 0.00 in0.0 mm 0.00 in0.0 mm 0.00 in0.0 mm
01:33 AM 56.9°F13.8°C 59.1°F15.1°C 72% Calm Calm -- 29.80 in1009.1 mb 0.00 in0.0 mm 0.00 in0.0 mm 0.00 in0.0 mm
01:36 AM 56.5°F13.6°C 58.4°F14.7°C 71% Calm Calm -- 29.79 in1008.8 mb 0.00 in0.0 mm 0.00 in0.0 mm 0.00 in0.0 mm
01:39 AM 56.9°F13.8°C 58.4°F14.7°C 71% Calm Calm -- 29.79 in1008.8 mb 0.00 in0.0 mm 0.00 in0.0 mm 0.00 in0.0 mm
01:42 AM 56.8°F13.8°C 58.4°F14.7°C 71% Calm Calm -- 29.79 in1008.8 mb 0.00 in0.0 mm 0.00 in0.0 mm 0.00 in0.0 mm
01:45 AM 57.0°F13.9°C 58.7°F14.8°C 72% Calm Calm -- 29.79 in1008.8 mb 0.00 in0.0 mm 0.00 in0.0 mm 0.00 in0.0 mm
01:48 AM 57.1°F13.9°C 58.6°F14.8°C 72% Calm Calm -- 29.79 in1008.8 mb 0.00 in0.0 mm 0.00 in0.0 mm 0.00 in0.0 mm
01:51 AM 56.9°F13.8°C 58.6°F14.8°C 72% Calm Calm -- 29.79 in1008.8 mb 0.00 in0.0 mm 0.00 in0.0 mm 0.00 in0.0 mm
01:54 AM 57.0°F13.9°C 58.7°F14.8°C 72% Calm Calm -- 29.79 in1008.8 mb 0.00 in0.0 mm 0.00 in0.0 mm 0.00 in0.0 mm
01:57 AM 56.9°F13.8°C 58.6°F14.8°C 72% Calm Calm -- 29.79 in1008.8 mb 0.00 in0.0 mm 0.00 in0.0 mm 0.00 in0.0 mm
02:00 AM 56.3°F13.5°C 58.8°F14.9°C 72% Calm Calm -- 29.79 in1008.8 mb 0.00 in0.0 mm 0.00 in0.0 mm 0.00 in0.0 mm
02:06 AM 55.9°F13.3°C 58.2°F14.6°C 72% Calm Calm -- 29.79 in1008.8 mb 0.00 in0.0 mm 0.00 in0.0 mm 0.00 in0.0 mm
02:09 AM 57.0°F13.9°C 58.1°F14.5°C 71% Calm Calm -- 29.79 in1008.8 mb 0.00 in0.0 mm 0.00 in0.0 mm 0.00 in0.0 mm
02:12 AM 56.1°F13.4°C 58.4°F14.7°C 73% Calm Calm -- 29.79 in1008.8 mb 0.00 in0.0 mm 0.00 in0.0 mm 0.00 in0.0 mm
02:15 AM 55.9°F13.3°C 58.1°F14.5°C 72% Calm Calm -- 29.79 in1008.8 mb 0.00 in0.0 mm 0.00 in0.0 mm 0.00 in0.0 mm
02:18 AM 56.8°F13.8°C 58.1°F14.5°C 72% Calm Calm -- 29.79 in1008.8 mb 0.00 in0.0 mm 0.00 in0.0 mm 0.00 in0.0 mm
02:21 AM 56.6°F13.7°C 58.1°F14.5°C 72% Calm Calm -- 29.79 in1008.8 mb 0.00 in0.0 mm 0.00 in0.0 mm 0.00 in0.0 mm
02:24 AM 56.1°F13.4°C 58.3°F14.6°C 73% Calm Calm -- 29.80 in1009.1 mb 0.00 in0.0 mm 0.00 in0.0 mm 0.00 in0.0 mm
02:27 AM 56.3°F13.5°C 58.4°F14.7°C 74% Calm Calm -- 29.80 in1009.1 mb 0.00 in0.0 mm 0.00 in0.0 mm 0.00 in0.0 mm
02:30 AM 56.2°F13.4°C 58.0°F14.4°C 73% Calm Calm -- 29.80 in1009.1 mb 0.00 in0.0 mm 0.00 in0.0 mm 0.00 in0.0 mm
02:33 AM 56.1°F13.4°C 58.1°F14.5°C 73% Calm Calm -- 29.80 in1009.1 mb 0.00 in0.0 mm 0.00 in0.0 mm 0.00 in0.0 mm
02:36 AM 56.2°F13.4°C 58.1°F14.5°C 73% Calm Calm -- 29.81 in1009.5 mb 0.00 in0.0 mm 0.00 in0.0 mm 0.00 in0.0 mm
02:39 AM 56.4°F13.6°C 58.0°F14.4°C 73% Calm Calm -- 29.81 in1009.5 mb 0.00 in0.0 mm 0.00 in0.0 mm 0.00 in0.0 mm
02:42 AM 56.3°F13.5°C 58.4°F14.7°C 74% Calm Calm -- 29.81 in1009.5 mb 0.00 in0.0 mm 0.00 in0.0 mm 0.00 in0.0 mm
02:45 AM 56.6°F13.7°C 58.2°F14.6°C 74% Calm Calm -- 29.81 in1009.5 mb 0.00 in0.0 mm 0.00 in0.0 mm 0.00 in0.0 mm
02:48 AM 57.1°F13.9°C 58.5°F14.7°C 75% 2.8 mph NNW4.5 kmh NNW 2.9 mph4.7 kmh 29.83 in1010.2 mb 0.00 in0.0 mm 0.00 in0.0 mm 0.00 in0.0 mm
02:51 AM 58.6°F14.8°C 59.1°F15.1°C 76% 4.0 mph NNW6.4 kmh NNW 4.0 mph6.4 kmh 29.85 in1010.8 mb 0.00 in0.0 mm 0.00 in0.0 mm 0.00 in0.0 mm
02:54 AM 58.6°F14.8°C 58.8°F14.9°C 75% Calm Calm -- 29.85 in1010.8 mb 0.00 in0.0 mm 0.00 in0.0 mm 0.00 in0.0 mm
02:57 AM 58.6°F14.8°C 58.8°F14.9°C 75% Calm Calm -- 29.85 in1010.8 mb 0.00 in0.0 mm 0.00 in0.0 mm 0.00 in0.0 mm
03:00 AM 58.8°F14.9°C 59.0°F15.0°C 76% Calm Calm -- 29.85 in1010.8 mb 0.00 in0.0 mm 0.00 in0.0 mm 0.00 in0.0 mm
03:03 AM 58.9°F14.9°C 59.0°F15.0°C 75% 0.4 mph SW0.6 kmh SW 0.4 mph0.6 kmh 29.86 in1011.2 mb 0.00 in0.0 mm 0.00 in0.0 mm 0.00 in0.0 mm
03:06 AM 59.2°F15.1°C 59.1°F15.1°C 76% Calm Calm -- 29.87 in1011.5 mb 0.00 in0.0 mm 0.00 in0.0 mm 0.00 in0.0 mm
03:09 AM 61.6°F16.4°C 60.0°F15.6°C 77% 4.0 mph NNW6.4 kmh NNW 4.1 mph6.6 kmh 29.87 in1011.5 mb 0.00 in0.0 mm 0.00 in0.0 mm 0.00 in0.0 mm
03:12 AM 62.0°F16.7°C 61.2°F16.2°C 80% 7.1 mph NNW11.4 kmh NNW 7.2 mph11.6 kmh 29.88 in1011.9 mb 0.00 in0.0 mm 0.00 in0.0 mm 0.00 in0.0 mm
03:15 AM 61.7°F16.5°C 61.7°F16.5°C 81% 5.2 mph NW8.4 kmh NW 5.3 mph8.5 kmh 29.89 in1012.2 mb 0.00 in0.0 mm 0.00 in0.0 mm 0.00 in0.0 mm
03:18 AM 62.0°F16.7°C 62.8°F17.1°C 84% 6.4 mph W10.3 kmh W 6.4 mph10.3 kmh 29.89 in1012.2 mb 0.00 in0.0 mm 0.00 in0.0 mm 0.00 in0.0 mm
03:21 AM 61.3°F16.3°C 62.8°F17.1°C 84% 5.2 mph NNW8.4 kmh NNW 5.3 mph8.5 kmh 29.89 in1012.2 mb 0.00 in0.0 mm 0.00 in0.0 mm 0.00 in0.0 mm
03:24 AM 61.6°F16.4°C 63.2°F17.3°C 85% 6.9 mph NNW11.1 kmh NNW 6.9 mph11.1 kmh 29.90 in1012.5 mb 0.00 in0.0 mm 0.00 in0.0 mm 0.00 in0.0 mm
03:27 AM 61.5°F16.4°C 63.1°F17.3°C 84% 6.4 mph 10.3 kmh 6.4 mph10.3 kmh 29.89 in1012.2 mb 0.00 in0.0 mm 0.00 in0.0 mm 0.02 in0.5 mm
03:30 AM 61.0°F16.1°C 63.1°F17.3°C 85% 11.1 mph NNW17.9 kmh NNW 11.2 mph18.0 kmh 29.90 in1012.5 mb 0.00 in0.0 mm 0.00 in0.0 mm 0.02 in0.5 mm
03:33 AM 60.5°F15.8°C 63.2°F17.3°C 85% 8.9 mph NNW14.3 kmh NNW 9.0 mph14.5 kmh 29.90 in1012.5 mb 0.00 in0.0 mm 0.00 in0.0 mm 0.04 in1.0 mm
03:36 AM 60.5°F15.8°C 63.0°F17.2°C 85% 8.5 mph NNW13.7 kmh NNW 8.5 mph13.7 kmh 29.89 in1012.2 mb 0.00 in0.0 mm 0.00 in0.0 mm 0.06 in1.5 mm
03:39 AM 60.0°F15.6°C 63.0°F17.2°C 85% 6.0 mph NNE9.7 kmh NNE 6.1 mph9.8 kmh 29.89 in1012.2 mb 0.00 in0.0 mm 0.00 in0.0 mm 0.06 in1.5 mm
03:42 AM 60.1°F15.6°C 62.8°F17.1°C 85% 9.5 mph NNE15.3 kmh NNE 9.6 mph15.4 kmh 29.89 in1012.2 mb 0.00 in0.0 mm 0.00 in0.0 mm 0.08 in2.0 mm
03:45 AM 60.2°F15.7°C 63.4°F17.4°C 85% 11.3 mph 18.2 kmh 11.4 mph18.3 kmh 29.89 in1012.2 mb 0.00 in0.0 mm 0.00 in0.0 mm 0.08 in2.0 mm
03:48 AM 59.9°F15.5°C 63.1°F17.3°C 85% 7.2 mph NNE11.6 kmh NNE 7.2 mph11.6 kmh 29.89 in1012.2 mb 0.00 in0.0 mm 0.00 in0.0 mm 0.10 in2.5 mm
03:51 AM 59.8°F15.4°C 63.3°F17.4°C 85% 9.3 mph 15.0 kmh 9.4 mph15.1 kmh 29.89 in1012.2 mb 0.00 in0.0 mm 0.00 in0.0 mm 0.10 in2.5 mm
03:54 AM 59.9°F15.5°C 63.3°F17.4°C 86% 6.4 mph NNE10.3 kmh NNE 6.4 mph10.3 kmh 29.88 in1011.9 mb 0.00 in0.0 mm 0.00 in0.0 mm 0.12 in3.0 mm
03:57 AM 59.9°F15.5°C 62.9°F17.2°C 86% 11.8 mph NE19.0 kmh NE 11.8 mph19.0 kmh 29.88 in1011.9 mb 0.00 in0.0 mm 0.00 in0.0 mm 0.12 in3.0 mm
04:00 AM 59.9°F15.5°C 63.1°F17.3°C 86% 7.9 mph NNE12.7 kmh NNE 7.9 mph12.7 kmh 29.88 in1011.9 mb 0.00 in0.0 mm 0.00 in0.0 mm 0.14 in3.6 mm
04:03 AM 59.6°F15.3°C 62.9°F17.2°C 86% 8.0 mph NE12.9 kmh NE 8.0 mph12.9 kmh 29.88 in1011.9 mb 0.00 in0.0 mm 0.00 in0.0 mm 0.14 in3.6 mm
04:06 AM 59.7°F15.4°C 62.8°F17.1°C 84% 5.2 mph 8.4 kmh 5.2 mph8.4 kmh 29.88 in1011.9 mb 0.00 in0.0 mm 0.00 in0.0 mm 0.14 in3.6 mm
04:09 AM 59.5°F15.3°C 62.6°F17.0°C 84% 6.9 mph NNW11.1 kmh NNW 6.9 mph11.1 kmh 29.88 in1011.9 mb 0.00 in0.0 mm 0.00 in0.0 mm 0.14 in3.6 mm
04:12 AM 59.6°F15.3°C 62.8°F17.1°C 84% 3.6 mph NNE5.8 kmh NNE 3.7 mph6.0 kmh 29.87 in1011.5 mb 0.00 in0.0 mm 0.00 in0.0 mm 0.14 in3.6 mm
04:15 AM 59.6°F15.3°C 62.8°F17.1°C 84% 3.5 mph 5.6 kmh 3.7 mph6.0 kmh 29.87 in1011.5 mb 0.00 in0.0 mm 0.00 in0.0 mm 0.14 in3.6 mm
04:18 AM 59.3°F15.2°C 63.1°F17.3°C 84% 4.0 mph NE6.4 kmh NE 4.1 mph6.6 kmh 29.87 in1011.5 mb 0.00 in0.0 mm 0.00 in0.0 mm 0.14 in3.6 mm
04:21 AM 59.3°F15.2°C 62.6°F17.0°C 84% 6.8 mph NNW10.9 kmh NNW 6.8 mph10.9 kmh 29.87 in1011.5 mb 0.00 in0.0 mm 0.00 in0.0 mm 0.14 in3.6 mm
04:24 AM 59.3°F15.2°C 62.8°F17.1°C 83% 4.2 mph NNW6.8 kmh NNW 4.3 mph6.9 kmh 29.86 in1011.2 mb 0.00 in0.0 mm 0.00 in0.0 mm 0.14 in3.6 mm
04:27 AM 58.9°F14.9°C 62.3°F16.8°C 82% Calm Calm -- 29.87 in1011.5 mb 0.00 in0.0 mm 0.00 in0.0 mm 0.14 in3.6 mm
04:30 AM 59.1°F15.1°C 62.3°F16.8°C 82% Calm Calm -- 29.87 in1011.5 mb 0.00 in0.0 mm 0.00 in0.0 mm 0.14 in3.6 mm
04:33 AM 59.3°F15.2°C 62.8°F17.1°C 83% 0.8 mph SE1.3 kmh SE 0.8 mph1.3 kmh 29.86 in1011.2 mb 0.00 in0.0 mm 0.00 in0.0 mm 0.14 in3.6 mm
04:36 AM 59.5°F15.3°C 62.5°F16.9°C 82% Calm Calm -- 29.86 in1011.2 mb 0.00 in0.0 mm 0.00 in0.0 mm 0.14 in3.6 mm
04:39 AM 59.3°F15.2°C 62.6°F17.0°C 83% 0.8 mph SSW1.3 kmh SSW 0.8 mph1.3 kmh 29.86 in1011.2 mb 0.00 in0.0 mm 0.00 in0.0 mm 0.14 in3.6 mm
04:42 AM 59.2°F15.1°C 62.7°F17.1°C 83% 1.6 mph W2.6 kmh W 1.6 mph2.6 kmh 29.87 in1011.5 mb 0.00 in0.0 mm 0.00 in0.0 mm 0.14 in3.6 mm
04:45 AM 59.5°F15.3°C 62.4°F16.9°C 82% Calm Calm -- 29.88 in1011.9 mb 0.00 in0.0 mm 0.00 in0.0 mm 0.14 in3.6 mm
04:48 AM 59.5°F15.3°C 62.5°F16.9°C 82% 0.8 mph W1.3 kmh W 0.8 mph1.3 kmh 29.88 in1011.9 mb 0.00 in0.0 mm 0.00 in0.0 mm 0.14 in3.6 mm
04:51 AM 59.6°F15.3°C 63.0°F17.2°C 83% 0.8 mph NNW1.3 kmh NNW 0.8 mph1.3 kmh 29.88 in1011.9 mb 0.00 in0.0 mm 0.00 in0.0 mm 0.14 in3.6 mm
04:54 AM 59.6°F15.3°C 62.9°F17.2°C 83% 1.2 mph NNW1.9 kmh NNW 1.2 mph1.9 kmh 29.89 in1012.2 mb 0.00 in0.0 mm 0.00 in0.0 mm 0.14 in3.6 mm
04:57 AM 59.6°F15.3°C 63.1°F17.3°C 84% 0.4 mph S0.6 kmh S 0.4 mph0.6 kmh 29.89 in1012.2 mb 0.00 in0.0 mm 0.00 in0.0 mm 0.14 in3.6 mm
05:00 AM 59.6°F15.3°C 63.2°F17.3°C 85% Calm Calm -- 29.89 in1012.2 mb 0.00 in0.0 mm 0.00 in0.0 mm 0.14 in3.6 mm
05:03 AM 59.6°F15.3°C 63.5°F17.5°C 85% 0.4 mph S0.6 kmh S 0.4 mph0.6 kmh 29.89 in1012.2 mb 0.00 in0.0 mm 0.00 in0.0 mm 0.14 in3.6 mm
05:06 AM 59.7°F15.4°C 63.4°F17.4°C 85% Calm Calm -- 29.89 in1012.2 mb 0.00 in0.0 mm 0.00 in0.0 mm 0.14 in3.6 mm
05:09 AM 59.8°F15.4°C 63.2°F17.3°C 85% 1.2 mph NNW1.9 kmh NNW 1.2 mph1.9 kmh 29.89 in1012.2 mb 0.00 in0.0 mm 0.00 in0.0 mm 0.14 in3.6 mm
05:12 AM 59.7°F15.4°C 63.1°F17.3°C 85% Calm Calm -- 29.89 in1012.2 mb 0.00 in0.0 mm 0.00 in0.0 mm 0.14 in3.6 mm
05:15 AM 59.6°F15.3°C 63.2°F17.3°C 84% Calm Calm -- 29.89 in1012.2 mb 0.00 in0.0 mm 0.00 in0.0 mm 0.14 in3.6 mm
05:18 AM 59.3°F15.2°C 63.2°F17.3°C 84% 0.8 mph NNW1.3 kmh NNW 0.8 mph1.3 kmh 29.89 in1012.2 mb 0.00 in0.0 mm 0.00 in0.0 mm 0.14 in3.6 mm
05:21 AM 59.8°F15.4°C 63.1°F17.3°C 84% 0.8 mph NNW1.3 kmh NNW 0.8 mph1.3 kmh 29.89 in1012.2 mb 0.00 in0.0 mm 0.00 in0.0 mm 0.14 in3.6 mm
05:24 AM 59.3°F15.2°C 63.0°F17.2°C 84% 2.4 mph NNW3.9 kmh NNW 2.4 mph3.9 kmh 29.88 in1011.9 mb 0.00 in0.0 mm 0.00 in0.0 mm 0.14 in3.6 mm
05:27 AM 59.6°F15.3°C 63.3°F17.4°C 85% 2.0 mph ESE3.2 kmh ESE 2.0 mph3.2 kmh 29.88 in1011.9 mb 0.00 in0.0 mm 0.00 in0.0 mm 0.14 in3.6 mm
05:30 AM 59.8°F15.4°C 63.1°F17.3°C 84% Calm Calm -- 29.89 in1012.2 mb 0.00 in0.0 mm 0.00 in0.0 mm 0.14 in3.6 mm
05:33 AM 59.8°F15.4°C 62.9°F17.2°C 84% 2.0 mph NNW3.2 kmh NNW 2.0 mph3.2 kmh 29.89 in1012.2 mb 0.00 in0.0 mm 0.00 in0.0 mm 0.14 in3.6 mm
05:36 AM 60.0°F15.6°C 63.2°F17.3°C 84% 2.0 mph NNE3.2 kmh NNE 2.0 mph3.2 kmh 29.89 in1012.2 mb 0.00 in0.0 mm 0.00 in0.0 mm 0.14 in3.6 mm
05:39 AM 60.0°F15.6°C 63.2°F17.3°C 84% Calm Calm -- 29.89 in1012.2 mb 0.00 in0.0 mm 0.00 in0.0 mm 0.14 in3.6 mm
05:42 AM 60.4°F15.8°C 63.1°F17.3°C 84% Calm Calm -- 29.89 in1012.2 mb 0.00 in0.0 mm 0.00 in0.0 mm 0.14 in3.6 mm
05:45 AM 60.2°F15.7°C 63.2°F17.3°C 84% Calm Calm -- 29.89 in1012.2 mb 0.00 in0.0 mm 0.00 in0.0 mm 0.14 in3.6 mm
05:48 AM 60.2°F15.7°C 63.3°F17.4°C 84% Calm Calm -- 29.89 in1012.2 mb 0.00 in0.0 mm 0.00 in0.0 mm 0.14 in3.6 mm
05:51 AM 60.0°F15.6°C 63.2°F17.3°C 84% Calm Calm -- 29.89 in1012.2 mb 0.00 in0.0 mm 0.00 in0.0 mm 0.14 in3.6 mm
05:54 AM 60.2°F15.7°C 62.8°F17.1°C 83% Calm Calm -- 29.89 in1012.2 mb 0.00 in0.0 mm 0.00 in0.0 mm 0.14 in3.6 mm
05:57 AM 60.2°F15.7°C 63.4°F17.4°C 83% Calm Calm -- 29.89 in1012.2 mb 0.00 in0.0 mm 0.00 in0.0 mm 0.14 in3.6 mm
06:00 AM 60.5°F15.8°C 63.4°F17.4°C 84% Calm Calm -- 29.89 in1012.2 mb 0.00 in0.0 mm 0.00 in0.0 mm 0.14 in3.6 mm
06:03 AM 60.4°F15.8°C 63.6°F17.6°C 84% Calm Calm -- 29.89 in1012.2 mb 0.00 in0.0 mm 0.00 in0.0 mm 0.14 in3.6 mm
06:06 AM 60.5°F15.8°C 63.2°F17.3°C 83% Calm Calm -- 29.89 in1012.2 mb 0.00 in0.0 mm 0.00 in0.0 mm 0.14 in3.6 mm
06:09 AM 60.6°F15.9°C 63.6°F17.6°C 84% Calm Calm -- 29.89 in1012.2 mb 0.00 in0.0 mm 0.00 in0.0 mm 0.14 in3.6 mm
06:12 AM 60.8°F16.0°C 63.8°F17.7°C 85% Calm Calm -- 29.89 in1012.2 mb 0.00 in0.0 mm 0.00 in0.0 mm 0.14 in3.6 mm
06:15 AM 60.6°F15.9°C 63.5°F17.5°C 84% Calm Calm -- 29.90 in1012.5 mb 0.00 in0.0 mm 0.00 in0.0 mm 0.14 in3.6 mm
06:18 AM 61.0°F16.1°C 63.6°F17.6°C 84% Calm Calm -- 29.90 in1012.5 mb 0.00 in0.0 mm 0.00 in0.0 mm 0.14 in3.6 mm
06:21 AM 61.3°F16.3°C 63.8°F17.7°C 85% Calm Calm -- 29.89 in1012.2 mb 0.00 in0.0 mm 0.00 in0.0 mm 0.14 in3.6 mm
06:24 AM 60.9°F16.1°C 63.9°F17.7°C 85% Calm Calm -- 29.89 in1012.2 mb 0.00 in0.0 mm 0.00 in0.0 mm 0.14 in3.6 mm
06:27 AM 60.9°F16.1°C 63.6°F17.6°C 84% Calm Calm -- 29.90 in1012.5 mb 0.00 in0.0 mm 0.00 in0.0 mm 0.14 in3.6 mm
06:30 AM 61.4°F16.3°C 64.0°F17.8°C 84% Calm Calm -- 29.90 in1012.5 mb 0.00 in0.0 mm 0.00 in0.0 mm 0.14 in3.6 mm
06:33 AM 61.7°F16.5°C 63.8°F17.7°C 84% Calm Calm -- 29.90 in1012.5 mb 0.00 in0.0 mm 0.00 in0.0 mm 0.14 in3.6 mm
06:36 AM 61.6°F16.4°C 64.0°F17.8°C 84% Calm Calm -- 29.90 in1012.5 mb 0.00 in0.0 mm 0.00 in0.0 mm 0.14 in3.6 mm
06:39 AM 61.5°F16.4°C 64.1°F17.8°C 84% Calm Calm -- 29.90 in1012.5 mb 0.00 in0.0 mm 0.00 in0.0 mm 0.14 in3.6 mm
06:42 AM 61.0°F16.1°C 64.3°F17.9°C 85% Calm Calm -- 29.90 in1012.5 mb 0.00 in0.0 mm 0.00 in0.0 mm 0.14 in3.6 mm
06:45 AM 61.3°F16.3°C 64.3°F17.9°C 85% Calm Calm -- 29.90 in1012.5 mb 0.00 in0.0 mm 0.00 in0.0 mm 0.14 in3.6 mm
06:48 AM 61.6°F16.4°C 64.4°F18.0°C 84% Calm Calm -- 29.90 in1012.5 mb 0.00 in0.0 mm 0.00 in0.0 mm 0.14 in3.6 mm
06:51 AM 61.6°F16.4°C 64.4°F18.0°C 85% Calm Calm -- 29.90 in1012.5 mb 0.00 in0.0 mm 0.00 in0.0 mm 0.14 in3.6 mm
06:54 AM 61.3°F16.3°C 64.2°F17.9°C 84% Calm Calm -- 29.90 in1012.5 mb 0.00 in0.0 mm 0.00 in0.0 mm 0.14 in3.6 mm
06:57 AM 61.7°F16.5°C 64.6°F18.1°C 84% Calm Calm -- 29.90 in1012.5 mb 0.00 in0.0 mm 0.00 in0.0 mm 0.14 in3.6 mm
07:00 AM 61.5°F16.4°C 64.6°F18.1°C 84% Calm Calm -- 29.90 in1012.5 mb 0.00 in0.0 mm 0.00 in0.0 mm 0.14 in3.6 mm
07:03 AM 61.4°F16.3°C 64.5°F18.1°C 84% Calm Calm -- 29.90 in1012.5 mb 0.00 in0.0 mm 0.00 in0.0 mm 0.14 in3.6 mm
07:06 AM 61.6°F16.4°C 64.6°F18.1°C 84% Calm Calm -- 29.89 in1012.2 mb 0.00 in0.0 mm 0.00 in0.0 mm 0.14 in3.6 mm
07:09 AM 62.4°F16.9°C 64.7°F18.2°C 85% Calm Calm -- 29.89 in1012.2 mb 0.00 in0.0 mm 0.00 in0.0 mm 0.14 in3.6 mm
07:12 AM 61.5°F16.4°C 64.8°F18.2°C 84% Calm Calm -- 29.89 in1012.2 mb 0.00 in0.0 mm 0.00 in0.0 mm 0.14 in3.6 mm
07:15 AM 61.7°F16.5°C 64.8°F18.2°C 85% 0.8 mph NNW1.3 kmh NNW 0.8 mph1.3 kmh 29.89 in1012.2 mb 0.00 in0.0 mm 0.00 in0.0 mm 0.14 in3.6 mm
07:18 AM 63.1°F17.3°C 65.1°F18.4°C 85% Calm Calm -- 29.89 in1012.2 mb 0.00 in0.0 mm 0.00 in0.0 mm 0.14 in3.6 mm
07:21 AM 63.4°F17.4°C 65.5°F18.6°C 85% 0.8 mph SW1.3 kmh SW 0.8 mph1.3 kmh 29.89 in1012.2 mb 0.00 in0.0 mm 0.00 in0.0 mm 0.14 in3.6 mm
07:24 AM 63.3°F17.4°C 66.2°F19.0°C 86% 1.1 mph NNW1.8 kmh NNW 1.1 mph1.8 kmh 29.89 in1012.2 mb 0.00 in0.0 mm 0.00 in0.0 mm 0.14 in3.6 mm
07:27 AM 64.4°F18.0°C 66.7°F19.3°C 86% Calm Calm -- 29.90 in1012.5 mb 0.00 in0.0 mm 0.00 in0.0 mm 0.14 in3.6 mm
07:30 AM 62.5°F16.9°C 65.8°F18.8°C 82% 2.4 mph NNW3.9 kmh NNW 2.4 mph3.9 kmh 29.90 in1012.5 mb 0.00 in0.0 mm 0.00 in0.0 mm 0.14 in3.6 mm
07:33 AM 63.4°F17.4°C 65.7°F18.7°C 82% 3.2 mph WSW5.1 kmh WSW 3.3 mph5.3 kmh 29.90 in1012.5 mb 0.00 in0.0 mm 0.00 in0.0 mm 0.14 in3.6 mm
07:36 AM 63.6°F17.6°C 66.0°F18.9°C 82% 3.1 mph WSW5.0 kmh WSW 3.1 mph5.0 kmh 29.89 in1012.2 mb 0.00 in0.0 mm 0.00 in0.0 mm 0.14 in3.6 mm
07:39 AM 64.1°F17.8°C 65.7°F18.7°C 81% 1.6 mph W2.6 kmh W 1.6 mph2.6 kmh 29.89 in1012.2 mb 0.00 in0.0 mm 0.00 in0.0 mm 0.14 in3.6 mm
07:42 AM 62.8°F17.1°C 65.9°F18.8°C 81% 4.0 mph W6.4 kmh W 4.1 mph6.6 kmh 29.90 in1012.5 mb 0.00 in0.0 mm 0.00 in0.0 mm 0.14 in3.6 mm
07:45 AM 63.6°F17.6°C 65.5°F18.6°C 81% 2.4 mph NW3.9 kmh NW 2.4 mph3.9 kmh 29.90 in1012.5 mb 0.00 in0.0 mm 0.00 in0.0 mm 0.14 in3.6 mm
07:48 AM 64.1°F17.8°C 65.3°F18.5°C 81% 2.4 mph WNW3.9 kmh WNW 2.4 mph3.9 kmh 29.89 in1012.2 mb 0.00 in0.0 mm 0.00 in0.0 mm 0.14 in3.6 mm
07:51 AM 64.7°F18.2°C 65.4°F18.6°C 81% 2.0 mph NNW3.2 kmh NNW 2.0 mph3.2 kmh 29.89 in1012.2 mb 0.00 in0.0 mm 0.00 in0.0 mm 0.14 in3.6 mm
07:54 AM 66.3°F19.1°C 66.0°F18.9°C 82% 0.8 mph WSW1.3 kmh WSW 0.8 mph1.3 kmh 29.89 in1012.2 mb 0.00 in0.0 mm 0.00 in0.0 mm 0.14 in3.6 mm
07:57 AM 67.2°F19.6°C 66.0°F18.9°C 82% 0.4 mph SW0.6 kmh SW 0.4 mph0.6 kmh 29.89 in1012.2 mb 0.00 in0.0 mm 0.00 in0.0 mm 0.14 in3.6 mm
08:00 AM 68.2°F20.1°C 66.6°F19.2°C 82% 3.3 mph WNW5.3 kmh WNW 3.3 mph5.3 kmh 29.90 in1012.5 mb 0.00 in0.0 mm 0.00 in0.0 mm 0.14 in3.6 mm
08:03 AM 68.0°F20.0°C 66.7°F19.3°C 81% 2.8 mph W4.5 kmh W 2.8 mph4.5 kmh 29.89 in1012.2 mb 0.00 in0.0 mm 0.00 in0.0 mm 0.14 in3.6 mm
08:06 AM 68.1°F20.1°C 66.3°F19.1°C 80% 1.6 mph W2.6 kmh W 1.6 mph2.6 kmh 29.89 in1012.2 mb 0.00 in0.0 mm 0.00 in0.0 mm 0.14 in3.6 mm
08:09 AM 68.2°F20.1°C 66.2°F19.0°C 80% 2.8 mph WNW4.5 kmh WNW 2.9 mph4.7 kmh 29.89 in1012.2 mb 0.00 in0.0 mm 0.00 in0.0 mm 0.14 in3.6 mm
08:12 AM 69.6°F20.9°C 66.7°F19.3°C 80% 1.5 mph NNW2.4 kmh NNW 1.5 mph2.4 kmh 29.89 in1012.2 mb 0.00 in0.0 mm 0.00 in0.0 mm 0.14 in3.6 mm
08:15 AM 69.2°F20.7°C 66.3°F19.1°C 79% 3.4 mph NNW5.5 kmh NNW 3.4 mph5.5 kmh 29.89 in1012.2 mb 0.00 in0.0 mm 0.00 in0.0 mm 0.14 in3.6 mm
08:18 AM 69.8°F21.0°C 66.2°F19.0°C 77% 0.8 mph NW1.3 kmh NW 0.8 mph1.3 kmh 29.89 in1012.2 mb 0.00 in0.0 mm 0.00 in0.0 mm 0.14 in3.6 mm
08:21 AM 68.8°F20.4°C 66.2°F19.0°C 77% 3.2 mph WSW5.1 kmh WSW 3.3 mph5.3 kmh 29.89 in1012.2 mb 0.00 in0.0 mm 0.00 in0.0 mm 0.14 in3.6 mm
08:24 AM 69.4°F20.8°C 66.5°F19.2°C 77% 2.0 mph W3.2 kmh W 2.0 mph3.2 kmh 29.89 in1012.2 mb 0.00 in0.0 mm 0.00 in0.0 mm 0.14 in3.6 mm
08:27 AM 69.6°F20.9°C 66.4°F19.1°C 77% 0.4 mph NW0.6 kmh NW 0.4 mph0.6 kmh 29.89 in1012.2 mb 0.00 in0.0 mm 0.00 in0.0 mm 0.14 in3.6 mm
08:30 AM 69.6°F20.9°C 66.6°F19.2°C 77% 4.0 mph W6.4 kmh W 4.0 mph6.4 kmh 29.89 in1012.2 mb 0.00 in0.0 mm 0.00 in0.0 mm 0.14 in3.6 mm
08:33 AM 68.3°F20.2°C 66.1°F18.9°C 76% 2.4 mph SW3.9 kmh SW 2.4 mph3.9 kmh 29.90 in1012.5 mb 0.00 in0.0 mm 0.00 in0.0 mm 0.14 in3.6 mm
08:36 AM 68.9°F20.5°C 66.1°F18.9°C 76% 1.6 mph WSW2.6 kmh WSW 1.6 mph2.6 kmh 29.89 in1012.2 mb 0.00 in0.0 mm 0.00 in0.0 mm 0.14 in3.6 mm
08:39 AM 69.0°F20.6°C 66.2°F19.0°C 76% 1.2 mph NNW1.9 kmh NNW 1.2 mph1.9 kmh 29.90 in1012.5 mb 0.00 in0.0 mm 0.00 in0.0 mm 0.14 in3.6 mm
08:42 AM 68.7°F20.4°C 66.4°F19.1°C 76% 2.8 mph W4.5 kmh W 2.9 mph4.7 kmh 29.89 in1012.2 mb 0.00 in0.0 mm 0.00 in0.0 mm 0.14 in3.6 mm
08:45 AM 68.9°F20.5°C 66.0°F18.9°C 75% 2.0 mph NNW3.2 kmh NNW 2.0 mph3.2 kmh 29.89 in1012.2 mb 0.00 in0.0 mm 0.00 in0.0 mm 0.14 in3.6 mm
08:48 AM 69.5°F20.8°C 66.7°F19.3°C 76% 2.0 mph NNW3.2 kmh NNW 2.0 mph3.2 kmh 29.89 in1012.2 mb 0.00 in0.0 mm 0.00 in0.0 mm 0.14 in3.6 mm
08:51 AM 69.8°F21.0°C 66.5°F19.2°C 76% 2.0 mph NW3.2 kmh NW 2.0 mph3.2 kmh 29.89 in1012.2 mb 0.00 in0.0 mm 0.00 in0.0 mm 0.14 in3.6 mm
08:54 AM 69.2°F20.7°C 66.8°F19.3°C 76% 2.0 mph WSW3.2 kmh WSW 2.0 mph3.2 kmh 29.89 in1012.2 mb 0.00 in0.0 mm 0.00 in0.0 mm 0.14 in3.6 mm
08:57 AM 68.7°F20.4°C 66.8°F19.3°C 75% 1.2 mph NNW1.9 kmh NNW 1.2 mph1.9 kmh 29.89 in1012.2 mb 0.00 in0.0 mm 0.00 in0.0 mm 0.14 in3.6 mm
09:00 AM 70.1°F21.2°C 67.1°F19.5°C 75% Calm Calm -- 29.89 in1012.2 mb 0.00 in0.0 mm 0.00 in0.0 mm 0.14 in3.6 mm
09:03 AM 70.0°F21.1°C 67.2°F19.6°C 76% 1.2 mph NNW1.9 kmh NNW 1.2 mph1.9 kmh 29.89 in1012.2 mb 0.00 in0.0 mm 0.00 in0.0 mm 0.14 in3.6 mm
09:06 AM 69.5°F20.8°C 67.0°F19.4°C 75% 2.8 mph WSW4.5 kmh WSW 2.9 mph4.7 kmh 29.89 in1012.2 mb 0.00 in0.0 mm 0.00 in0.0 mm 0.14 in3.6 mm
09:09 AM 69.9°F21.1°C 67.2°F19.6°C 75% 2.8 mph WSW4.5 kmh WSW 2.9 mph4.7 kmh 29.89 in1012.2 mb 0.00 in0.0 mm 0.00 in0.0 mm 0.14 in3.6 mm
09:12 AM 70.0°F21.1°C 66.6°F19.2°C 73% 2.4 mph W3.9 kmh W 2.4 mph3.9 kmh 29.90 in1012.5 mb 0.00 in0.0 mm 0.00 in0.0 mm 0.14 in3.6 mm
09:15 AM 70.5°F21.4°C 66.7°F19.3°C 74% 1.2 mph WSW1.9 kmh WSW 1.2 mph1.9 kmh 29.90 in1012.5 mb 0.00 in0.0 mm 0.00 in0.0 mm 0.14 in3.6 mm
09:18 AM 70.8°F21.6°C 67.1°F19.5°C 74% 2.4 mph WSW3.9 kmh WSW 2.4 mph3.9 kmh 29.90 in1012.5 mb 0.00 in0.0 mm 0.00 in0.0 mm 0.14 in3.6 mm
09:21 AM 70.0°F21.1°C 66.7°F19.3°C 73% 2.8 mph WSW4.5 kmh WSW 2.8 mph4.5 kmh 29.90 in1012.5 mb 0.00 in0.0 mm 0.00 in0.0 mm 0.14 in3.6 mm
09:24 AM 70.1°F21.2°C 66.6°F19.2°C 72% 1.9 mph NNW3.1 kmh NNW 1.9 mph3.1 kmh 29.90 in1012.5 mb 0.00 in0.0 mm 0.00 in0.0 mm 0.14 in3.6 mm
09:27 AM 70.5°F21.4°C 66.7°F19.3°C 73% 2.3 mph WSW3.7 kmh WSW 2.3 mph3.7 kmh 29.90 in1012.5 mb 0.00 in0.0 mm 0.00 in0.0 mm 0.14 in3.6 mm
09:30 AM 69.8°F21.0°C 66.2°F19.0°C 71% 3.8 mph NNW6.1 kmh NNW 4.1 mph6.6 kmh 29.90 in1012.5 mb 0.00 in0.0 mm 0.00 in0.0 mm 0.14 in3.6 mm
09:33 AM 71.0°F21.7°C 66.3°F19.1°C 72% 3.8 mph NW6.1 kmh NW 3.9 mph6.3 kmh 29.90 in1012.5 mb 0.00 in0.0 mm 0.00 in0.0 mm 0.14 in3.6 mm
09:36 AM 71.3°F21.8°C 66.3°F19.1°C 71% 3.8 mph WNW6.1 kmh WNW 3.8 mph6.1 kmh 29.90 in1012.5 mb 0.00 in0.0 mm 0.00 in0.0 mm 0.14 in3.6 mm
09:39 AM 71.7°F22.1°C 67.0°F19.4°C 72% 1.5 mph NNW2.4 kmh NNW 1.6 mph2.6 kmh 29.90 in1012.5 mb 0.00 in0.0 mm 0.00 in0.0 mm 0.14 in3.6 mm
09:42 AM 70.3°F21.3°C 66.4°F19.1°C 71% 3.5 mph W5.6 kmh W 3.5 mph5.6 kmh 29.90 in1012.5 mb 0.00 in0.0 mm 0.00 in0.0 mm 0.14 in3.6 mm
09:45 AM 70.9°F21.6°C 66.7°F19.3°C 71% 4.0 mph NNW6.4 kmh NNW 4.1 mph6.6 kmh 29.90 in1012.5 mb 0.00 in0.0 mm 0.00 in0.0 mm 0.14 in3.6 mm
09:48 AM 71.9°F22.2°C 66.6°F19.2°C 71% 3.6 mph WSW5.8 kmh WSW 3.7 mph6.0 kmh 29.90 in1012.5 mb 0.00 in0.0 mm 0.00 in0.0 mm 0.14 in3.6 mm
09:51 AM 71.6°F22.0°C 67.0°F19.4°C 71% 2.0 mph NNW3.2 kmh NNW 2.0 mph3.2 kmh 29.90 in1012.5 mb 0.00 in0.0 mm 0.00 in0.0 mm 0.14 in3.6 mm
09:54 AM 72.1°F22.3°C 67.0°F19.4°C 71% 3.2 mph NW5.1 kmh NW 3.3 mph5.3 kmh 29.90 in1012.5 mb 0.00 in0.0 mm 0.00 in0.0 mm 0.14 in3.6 mm
09:57 AM 71.9°F22.2°C 67.3°F19.6°C 72% 3.6 mph SW5.8 kmh SW 3.6 mph5.8 kmh 29.90 in1012.5 mb 0.00 in0.0 mm 0.00 in0.0 mm 0.14 in3.6 mm
10:00 AM 71.9°F22.2°C 67.3°F19.6°C 71% 2.8 mph SW4.5 kmh SW 2.8 mph4.5 kmh 29.90 in1012.5 mb 0.00 in0.0 mm 0.00 in0.0 mm 0.14 in3.6 mm
10:03 AM 72.4°F22.4°C 68.3°F20.2°C 72% 2.4 mph W3.9 kmh W 2.4 mph3.9 kmh 29.90 in1012.5 mb 0.00 in0.0 mm 0.00 in0.0 mm 0.14 in3.6 mm
10:06 AM 72.8°F22.7°C 67.7°F19.8°C 71% 2.0 mph NNW3.2 kmh NNW 2.0 mph3.2 kmh 29.90 in1012.5 mb 0.00 in0.0 mm 0.00 in0.0 mm 0.14 in3.6 mm
10:09 AM 72.5°F22.5°C 67.6°F19.8°C 70% 4.0 mph W6.4 kmh W 4.1 mph6.6 kmh 29.90 in1012.5 mb 0.00 in0.0 mm 0.00 in0.0 mm 0.14 in3.6 mm
10:12 AM 71.5°F21.9°C 67.0°F19.4°C 69% 2.0 mph W3.2 kmh W 2.0 mph3.2 kmh 29.90 in1012.5 mb 0.00 in0.0 mm 0.00 in0.0 mm 0.14 in3.6 mm
10:15 AM 71.6°F22.0°C 67.0°F19.4°C 69% 1.6 mph W2.6 kmh W 1.6 mph2.6 kmh 29.90 in1012.5 mb 0.00 in0.0 mm 0.00 in0.0 mm 0.14 in3.6 mm
10:18 AM 71.5°F21.9°C 67.4°F19.7°C 69% 3.1 mph NNW5.0 kmh NNW 3.1 mph5.0 kmh 29.90 in1012.5 mb 0.00 in0.0 mm 0.00 in0.0 mm 0.14 in3.6 mm
10:21 AM 71.7°F22.1°C 67.4°F19.7°C 69% 1.9 mph W3.1 kmh W 1.9 mph3.1 kmh 29.90 in1012.5 mb 0.00 in0.0 mm 0.00 in0.0 mm 0.14 in3.6 mm
10:24 AM 73.2°F22.9°C 67.6°F19.8°C 69% 3.8 mph WNW6.1 kmh WNW 4.1 mph6.6 kmh 29.90 in1012.5 mb 0.00 in0.0 mm 0.00 in0.0 mm 0.14 in3.6 mm
10:27 AM 74.4°F23.6°C 68.8°F20.4°C 71% 1.2 mph W1.9 kmh W 1.2 mph1.9 kmh 29.90 in1012.5 mb 0.00 in0.0 mm 0.00 in0.0 mm 0.14 in3.6 mm
10:30 AM 74.2°F23.4°C 68.6°F20.3°C 69% 2.4 mph WNW3.9 kmh WNW 2.4 mph3.9 kmh 29.90 in1012.5 mb 0.00 in0.0 mm 0.00 in0.0 mm 0.14 in3.6 mm
10:33 AM 74.5°F23.6°C 68.3°F20.2°C 68% 2.4 mph NW3.9 kmh NW 2.4 mph3.9 kmh 29.90 in1012.5 mb 0.00 in0.0 mm 0.00 in0.0 mm 0.14 in3.6 mm
10:36 AM 75.9°F24.4°C 69.2°F20.7°C 69% 2.8 mph NNW4.5 kmh NNW 2.9 mph4.7 kmh 29.90 in1012.5 mb 0.00 in0.0 mm 0.00 in0.0 mm 0.14 in3.6 mm
10:39 AM 74.0°F23.3°C 68.9°F20.5°C 66% 2.0 mph WNW3.2 kmh WNW 2.0 mph3.2 kmh 29.90 in1012.5 mb 0.00 in0.0 mm 0.00 in0.0 mm 0.14 in3.6 mm
10:42 AM 71.9°F22.2°C 68.3°F20.2°C 65% 4.4 mph NNW7.1 kmh NNW 4.4 mph7.1 kmh 29.90 in1012.5 mb 0.00 in0.0 mm 0.00 in0.0 mm 0.14 in3.6 mm
10:45 AM 76.2°F24.6°C 70.2°F21.2°C 70% 2.8 mph NNW4.5 kmh NNW 2.8 mph4.5 kmh 29.90 in1012.5 mb 0.00 in0.0 mm 0.00 in0.0 mm 0.14 in3.6 mm
10:48 AM 72.8°F22.7°C 68.2°F20.1°C 63% 5.6 mph NNW9.0 kmh NNW 5.6 mph9.0 kmh 29.90 in1012.5 mb 0.00 in0.0 mm 0.00 in0.0 mm 0.14 in3.6 mm
10:51 AM 73.5°F23.1°C 68.7°F20.4°C 64% 2.4 mph NW3.9 kmh NW 2.4 mph3.9 kmh 29.90 in1012.5 mb 0.00 in0.0 mm 0.00 in0.0 mm 0.14 in3.6 mm
10:54 AM 73.9°F23.3°C 67.8°F19.9°C 63% 5.0 mph NNW8.0 kmh NNW 5.0 mph8.0 kmh 29.90 in1012.5 mb 0.00 in0.0 mm 0.00 in0.0 mm 0.14 in3.6 mm
10:57 AM 73.1°F22.8°C 67.7°F19.8°C 63% 4.2 mph W6.8 kmh W 4.2 mph6.8 kmh 29.90 in1012.5 mb 0.00 in0.0 mm 0.00 in0.0 mm 0.14 in3.6 mm
11:00 AM 73.0°F22.8°C 68.1°F20.1°C 64% 4.6 mph WSW7.4 kmh WSW 4.7 mph7.6 kmh 29.90 in1012.5 mb 0.00 in0.0 mm 0.00 in0.0 mm 0.14 in3.6 mm
11:03 AM 73.7°F23.2°C 68.2°F20.1°C 64% 3.4 mph WSW5.5 kmh WSW 3.6 mph5.8 kmh 29.90 in1012.5 mb 0.00 in0.0 mm 0.00 in0.0 mm 0.14 in3.6 mm
11:06 AM 73.7°F23.2°C 68.1°F20.1°C 64% 2.7 mph SW4.3 kmh SW 2.7 mph4.3 kmh 29.90 in1012.5 mb 0.00 in0.0 mm 0.00 in0.0 mm 0.14 in3.6 mm
11:09 AM 75.1°F23.9°C 68.5°F20.3°C 65% 3.5 mph NNW5.6 kmh NNW 3.5 mph5.6 kmh 29.90 in1012.5 mb 0.00 in0.0 mm 0.00 in0.0 mm 0.14 in3.6 mm
11:12 AM 73.7°F23.2°C 67.0°F19.4°C 61% 4.3 mph NNW6.9 kmh NNW 4.3 mph6.9 kmh 29.90 in1012.5 mb 0.00 in0.0 mm 0.00 in0.0 mm 0.14 in3.6 mm
11:15 AM 74.6°F23.7°C 67.3°F19.6°C 62% 2.8 mph NW4.5 kmh NW 2.8 mph4.5 kmh 29.90 in1012.5 mb 0.00 in0.0 mm 0.00 in0.0 mm 0.14 in3.6 mm
11:18 AM 74.5°F23.6°C 67.3°F19.6°C 63% 2.4 mph WNW3.9 kmh WNW 2.4 mph3.9 kmh 29.90 in1012.5 mb 0.00 in0.0 mm 0.00 in0.0 mm 0.14 in3.6 mm
11:21 AM 73.9°F23.3°C 68.2°F20.1°C 64% 3.8 mph W6.1 kmh W 3.8 mph6.1 kmh 29.90 in1012.5 mb 0.00 in0.0 mm 0.00 in0.0 mm 0.14 in3.6 mm
11:24 AM 74.4°F23.6°C 67.9°F19.9°C 63% 2.7 mph WSW4.3 kmh WSW 2.8 mph4.5 kmh 29.90 in1012.5 mb 0.00 in0.0 mm 0.00 in0.0 mm 0.14 in3.6 mm
11:27 AM 75.2°F24.0°C 68.1°F20.1°C 62% 0.8 mph NNW1.3 kmh NNW 0.8 mph1.3 kmh 29.90 in1012.5 mb 0.00 in0.0 mm 0.00 in0.0 mm 0.14 in3.6 mm
11:30 AM 75.5°F24.2°C 68.3°F20.2°C 63% 3.2 mph NNW5.1 kmh NNW 3.2 mph5.1 kmh 29.90 in1012.5 mb 0.00 in0.0 mm 0.00 in0.0 mm 0.14 in3.6 mm
11:33 AM 74.2°F23.4°C 65.9°F18.8°C 59% 4.2 mph 6.8 kmh 4.2 mph6.8 kmh 29.90 in1012.5 mb 0.00 in0.0 mm 0.00 in0.0 mm 0.14 in3.6 mm
11:36 AM 75.7°F24.3°C 67.7°F19.8°C 61% 1.9 mph WNW3.1 kmh WNW 1.9 mph3.1 kmh 29.90 in1012.5 mb 0.00 in0.0 mm 0.00 in0.0 mm 0.14 in3.6 mm
11:39 AM 74.8°F23.8°C 67.3°F19.6°C 60% 3.2 mph NW5.1 kmh NW 3.3 mph5.3 kmh 29.91 in1012.9 mb 0.00 in0.0 mm 0.00 in0.0 mm 0.14 in3.6 mm
11:42 AM 75.4°F24.1°C 67.7°F19.8°C 61% 8.7 mph NNW14.0 kmh NNW 8.8 mph14.2 kmh 29.91 in1012.9 mb 0.00 in0.0 mm 0.00 in0.0 mm 0.14 in3.6 mm
11:45 AM 77.2°F25.1°C 67.4°F19.7°C 60% 7.7 mph NW12.4 kmh NW 7.7 mph12.4 kmh 29.91 in1012.9 mb 0.00 in0.0 mm 0.00 in0.0 mm 0.14 in3.6 mm
11:51 AM 76.4°F24.7°C 67.7°F19.8°C 59% 0.8 mph W1.3 kmh W 0.8 mph1.3 kmh 29.91 in1012.9 mb 0.00 in0.0 mm 0.00 in0.0 mm 0.14 in3.6 mm
11:54 AM 75.8°F24.3°C 66.7°F19.3°C 57% 2.8 mph NNW4.5 kmh NNW 2.8 mph4.5 kmh 29.92 in1013.2 mb 0.00 in0.0 mm 0.00 in0.0 mm 0.14 in3.6 mm
11:57 AM 76.7°F24.8°C 66.9°F19.4°C 57% 7.1 mph NW11.4 kmh NW 7.2 mph11.6 kmh 29.92 in1013.2 mb 0.00 in0.0 mm 0.00 in0.0 mm 0.14 in3.6 mm
12:00 PM 77.3°F25.2°C 67.2°F19.6°C 56% 3.0 mph NNW4.8 kmh NNW 3.3 mph5.3 kmh 29.91 in1012.9 mb 0.00 in0.0 mm 0.00 in0.0 mm 0.14 in3.6 mm
12:03 PM 77.6°F25.3°C 69.1°F20.6°C 59% 3.2 mph NNW5.1 kmh NNW 3.2 mph5.1 kmh 29.91 in1012.9 mb 0.00 in0.0 mm 0.00 in0.0 mm 0.14 in3.6 mm
12:06 PM 78.1°F25.6°C 69.0°F20.6°C 58% 2.0 mph WNW3.2 kmh WNW 2.0 mph3.2 kmh 29.92 in1013.2 mb 0.00 in0.0 mm 0.00 in0.0 mm 0.14 in3.6 mm
12:09 PM 78.9°F26.1°C 69.7°F20.9°C 58% 6.4 mph NNW10.3 kmh NNW 6.5 mph10.5 kmh 29.91 in1012.9 mb 0.00 in0.0 mm 0.00 in0.0 mm 0.14 in3.6 mm
12:12 PM 79.3°F26.3°C 69.1°F20.6°C 58% 6.4 mph WNW10.3 kmh WNW 6.5 mph10.5 kmh 29.91 in1012.9 mb 0.00 in0.0 mm 0.00 in0.0 mm 0.14 in3.6 mm
12:15 PM 78.7°F25.9°C 68.2°F20.1°C 55% 3.2 mph W5.1 kmh W 3.2 mph5.1 kmh 29.91 in1012.9 mb 0.00 in0.0 mm 0.00 in0.0 mm 0.14 in3.6 mm
12:18 PM 78.5°F25.8°C 69.5°F20.8°C 57% 3.9 mph W6.3 kmh W 4.0 mph6.4 kmh 29.91 in1012.9 mb 0.00 in0.0 mm 0.00 in0.0 mm 0.14 in3.6 mm
12:21 PM 76.7°F24.8°C 67.1°F19.5°C 53% 2.8 mph NW4.5 kmh NW 2.9 mph4.7 kmh 29.91 in1012.9 mb 0.00 in0.0 mm 0.00 in0.0 mm 0.14 in3.6 mm
12:24 PM 76.9°F24.9°C 67.7°F19.8°C 53% 4.0 mph NNW6.4 kmh NNW 4.0 mph6.4 kmh 29.91 in1012.9 mb 0.00 in0.0 mm 0.00 in0.0 mm 0.14 in3.6 mm
12:27 PM 77.3°F25.2°C 67.2°F19.6°C 53% 5.6 mph WSW9.0 kmh WSW 5.6 mph9.0 kmh 29.91 in1012.9 mb 0.00 in0.0 mm 0.00 in0.0 mm 0.14 in3.6 mm
12:30 PM 77.5°F25.3°C 66.9°F19.4°C 53% 4.4 mph NNW7.1 kmh NNW 4.5 mph7.2 kmh 29.91 in1012.9 mb 0.00 in0.0 mm 0.00 in0.0 mm 0.14 in3.6 mm
12:33 PM 77.2°F25.1°C 67.2°F19.6°C 53% 4.0 mph SW6.4 kmh SW 4.1 mph6.6 kmh 29.91 in1012.9 mb 0.00 in0.0 mm 0.00 in0.0 mm 0.14 in3.6 mm
12:36 PM 77.3°F25.2°C 67.5°F19.7°C 53% 6.1 mph SW9.8 kmh SW 6.1 mph9.8 kmh 29.90 in1012.5 mb 0.00 in0.0 mm 0.00 in0.0 mm 0.14 in3.6 mm
12:39 PM 77.1°F25.1°C 68.2°F20.1°C 54% 3.2 mph W5.1 kmh W 3.2 mph5.1 kmh 29.90 in1012.5 mb 0.00 in0.0 mm 0.00 in0.0 mm 0.14 in3.6 mm
12:42 PM 78.4°F25.8°C 69.2°F20.7°C 56% 2.8 mph W4.5 kmh W 2.8 mph4.5 kmh 29.90 in1012.5 mb 0.00 in0.0 mm 0.00 in0.0 mm 0.14 in3.6 mm
12:45 PM 78.5°F25.8°C 68.7°F20.4°C 56% 3.6 mph WNW5.8 kmh WNW 3.6 mph5.8 kmh 29.90 in1012.5 mb 0.00 in0.0 mm 0.00 in0.0 mm 0.14 in3.6 mm
12:48 PM 78.6°F25.9°C 67.9°F19.9°C 52% 2.8 mph WNW4.5 kmh WNW 2.8 mph4.5 kmh 29.90 in1012.5 mb 0.00 in0.0 mm 0.00 in0.0 mm 0.14 in3.6 mm
12:51 PM 77.2°F25.1°C 66.7°F19.3°C 52% 6.5 mph NW10.5 kmh NW 6.5 mph10.5 kmh 29.90 in1012.5 mb 0.00 in0.0 mm 0.00 in0.0 mm 0.14 in3.6 mm
12:54 PM 77.1°F25.1°C 66.7°F19.3°C 51% 5.7 mph NNW9.2 kmh NNW 5.7 mph9.2 kmh 29.90 in1012.5 mb 0.00 in0.0 mm 0.00 in0.0 mm 0.14 in3.6 mm
12:57 PM 76.9°F24.9°C 67.8°F19.9°C 53% 2.0 mph NNW3.2 kmh NNW 2.0 mph3.2 kmh 29.90 in1012.5 mb 0.00 in0.0 mm 0.00 in0.0 mm 0.14 in3.6 mm
01:00 PM 77.8°F25.4°C 67.6°F19.8°C 54% 1.9 mph NW3.1 kmh NW 1.9 mph3.1 kmh 29.90 in1012.5 mb 0.00 in0.0 mm 0.00 in0.0 mm 0.14 in3.6 mm
01:06 PM 77.6°F25.3°C 68.4°F20.2°C 53% 2.4 mph W3.9 kmh W 2.4 mph3.9 kmh 29.90 in1012.5 mb 0.00 in0.0 mm 0.00 in0.0 mm 0.14 in3.6 mm
01:09 PM 77.7°F25.4°C 68.8°F20.4°C 54% 5.2 mph NNW8.4 kmh NNW 5.2 mph8.4 kmh 29.90 in1012.5 mb 0.00 in0.0 mm 0.00 in0.0 mm 0.14 in3.6 mm
01:12 PM 78.0°F25.6°C 68.3°F20.2°C 53% 4.4 mph NNW7.1 kmh NNW 4.5 mph7.2 kmh 29.90 in1012.5 mb 0.00 in0.0 mm 0.00 in0.0 mm 0.14 in3.6 mm
01:15 PM 78.6°F25.9°C 69.4°F20.8°C 55% 3.9 mph WSW6.3 kmh WSW 4.0 mph6.4 kmh 29.90 in1012.5 mb 0.00 in0.0 mm 0.00 in0.0 mm 0.14 in3.6 mm
01:18 PM 79.9°F26.6°C 68.1°F20.1°C 53% 2.4 mph NNW3.9 kmh NNW 2.4 mph3.9 kmh 29.90 in1012.5 mb 0.00 in0.0 mm 0.00 in0.0 mm 0.14 in3.6 mm
01:21 PM 79.1°F26.2°C 68.2°F20.1°C 52% 1.2 mph NNW1.9 kmh NNW 1.2 mph1.9 kmh 29.90 in1012.5 mb 0.00 in0.0 mm 0.00 in0.0 mm 0.14 in3.6 mm
01:24 PM 78.4°F25.8°C 67.1°F19.5°C 51% 4.4 mph NNW7.1 kmh NNW 4.5 mph7.2 kmh 29.91 in1012.9 mb 0.00 in0.0 mm 0.00 in0.0 mm 0.14 in3.6 mm
01:27 PM 78.5°F25.8°C 68.1°F20.1°C 51% 2.4 mph W3.9 kmh W 2.4 mph3.9 kmh 29.90 in1012.5 mb 0.00 in0.0 mm 0.00 in0.0 mm 0.14 in3.6 mm
01:30 PM 79.0°F26.1°C 68.2°F20.1°C 51% 2.4 mph NNW3.9 kmh NNW 2.4 mph3.9 kmh 29.91 in1012.9 mb 0.00 in0.0 mm 0.00 in0.0 mm 0.14 in3.6 mm
01:33 PM 77.2°F25.1°C 67.3°F19.6°C 50% 3.2 mph NW5.1 kmh NW 3.2 mph5.1 kmh 29.90 in1012.5 mb 0.00 in0.0 mm 0.00 in0.0 mm 0.14 in3.6 mm
01:36 PM 77.9°F25.5°C 69.2°F20.7°C 53% 5.4 mph W8.7 kmh W 5.4 mph8.7 kmh 29.91 in1012.9 mb 0.00 in0.0 mm 0.00 in0.0 mm 0.14 in3.6 mm
01:39 PM 78.8°F26.0°C 67.2°F19.6°C 51% 4.0 mph W6.4 kmh W 4.1 mph6.6 kmh 29.90 in1012.5 mb 0.00 in0.0 mm 0.00 in0.0 mm 0.14 in3.6 mm
01:42 PM 78.2°F25.7°C 67.9°F19.9°C 51% 1.2 mph NNW1.9 kmh NNW 1.2 mph1.9 kmh 29.90 in1012.5 mb 0.00 in0.0 mm 0.00 in0.0 mm 0.14 in3.6 mm
01:48 PM 78.2°F25.7°C 68.1°F20.1°C 53% 3.2 mph WNW5.1 kmh WNW 3.3 mph5.3 kmh 29.90 in1012.5 mb 0.00 in0.0 mm 0.00 in0.0 mm 0.14 in3.6 mm
01:51 PM 78.2°F25.7°C 68.3°F20.2°C 53% 3.5 mph WSW5.6 kmh WSW 3.7 mph6.0 kmh 29.90 in1012.5 mb 0.00 in0.0 mm 0.00 in0.0 mm 0.14 in3.6 mm
01:54 PM 79.9°F26.6°C 69.0°F20.6°C 53% 5.2 mph NW8.4 kmh NW 5.2 mph8.4 kmh 29.90 in1012.5 mb 0.00 in0.0 mm 0.00 in0.0 mm 0.14 in3.6 mm
01:57 PM 78.8°F26.0°C 67.9°F19.9°C 51% 3.8 mph W6.1 kmh W 3.9 mph6.3 kmh 29.90 in1012.5 mb 0.00 in0.0 mm 0.00 in0.0 mm 0.14 in3.6 mm
02:00 PM 78.1°F25.6°C 67.9°F19.9°C 50% 2.8 mph NW4.5 kmh NW 2.9 mph4.7 kmh 29.90 in1012.5 mb 0.00 in0.0 mm 0.00 in0.0 mm 0.14 in3.6 mm
02:03 PM 78.9°F26.1°C 68.9°F20.5°C 52% 4.8 mph NNW7.7 kmh NNW 4.9 mph7.9 kmh 29.90 in1012.5 mb 0.00 in0.0 mm 0.00 in0.0 mm 0.14 in3.6 mm
02:06 PM 77.2°F25.1°C 68.4°F20.2°C 51% 2.4 mph NW3.9 kmh NW 2.4 mph3.9 kmh 29.89 in1012.2 mb 0.00 in0.0 mm 0.00 in0.0 mm 0.14 in3.6 mm
02:09 PM 78.0°F25.6°C 68.2°F20.1°C 51% Calm Calm -- 29.89 in1012.2 mb 0.00 in0.0 mm 0.00 in0.0 mm 0.14 in3.6 mm
02:12 PM 78.8°F26.0°C 69.1°F20.6°C 51% 0.4 mph SSW0.6 kmh SSW 0.4 mph0.6 kmh 29.89 in1012.2 mb 0.00 in0.0 mm 0.00 in0.0 mm 0.14 in3.6 mm
02:15 PM 79.1°F26.2°C 69.1°F20.6°C 51% 2.4 mph W3.9 kmh W 2.4 mph3.9 kmh 29.89 in1012.2 mb 0.00 in0.0 mm 0.00 in0.0 mm 0.14 in3.6 mm
02:18 PM 78.2°F25.7°C 68.0°F20.0°C 49% 2.8 mph NW4.5 kmh NW 2.8 mph4.5 kmh 29.89 in1012.2 mb 0.00 in0.0 mm 0.00 in0.0 mm 0.14 in3.6 mm
02:21 PM 78.5°F25.8°C 69.3°F20.7°C 51% 3.6 mph WSW5.8 kmh WSW 3.6 mph5.8 kmh 29.88 in1011.9 mb 0.00 in0.0 mm 0.00 in0.0 mm 0.14 in3.6 mm
02:24 PM 77.1°F25.1°C 67.4°F19.7°C 48% 3.2 mph WSW5.1 kmh WSW 3.2 mph5.1 kmh 29.89 in1012.2 mb 0.00 in0.0 mm 0.00 in0.0 mm 0.14 in3.6 mm
02:27 PM 77.6°F25.3°C 67.7°F19.8°C 49% 3.2 mph NW5.1 kmh NW 3.2 mph5.1 kmh 29.89 in1012.2 mb 0.00 in0.0 mm 0.00 in0.0 mm 0.14 in3.6 mm
02:30 PM 77.3°F25.2°C 67.8°F19.9°C 50% 4.0 mph SW6.4 kmh SW 4.0 mph6.4 kmh 29.89 in1012.2 mb 0.00 in0.0 mm 0.00 in0.0 mm 0.14 in3.6 mm
02:33 PM 79.3°F26.3°C 67.7°F19.8°C 50% 0.8 mph NW1.3 kmh NW 0.8 mph1.3 kmh 29.89 in1012.2 mb 0.00 in0.0 mm 0.00 in0.0 mm 0.14 in3.6 mm
02:36 PM 79.6°F26.4°C 68.3°F20.2°C 50% 2.4 mph W3.9 kmh W 2.4 mph3.9 kmh 29.89 in1012.2 mb 0.00 in0.0 mm 0.00 in0.0 mm 0.14 in3.6 mm
02:39 PM 78.2°F25.7°C 68.0°F20.0°C 50% 1.6 mph SSE2.6 kmh SSE 1.6 mph2.6 kmh 29.88 in1011.9 mb 0.00 in0.0 mm 0.00 in0.0 mm 0.14 in3.6 mm
02:42 PM 79.0°F26.1°C 67.5°F19.7°C 48% 0.4 mph SW0.6 kmh SW 0.4 mph0.6 kmh 29.88 in1011.9 mb 0.00 in0.0 mm 0.00 in0.0 mm 0.14 in3.6 mm
02:45 PM 79.4°F26.3°C 68.3°F20.2°C 50% 2.8 mph W4.5 kmh W 2.9 mph4.7 kmh 29.88 in1011.9 mb 0.00 in0.0 mm 0.00 in0.0 mm 0.14 in3.6 mm
02:51 PM 77.7°F25.4°C 68.5°F20.3°C 51% 2.0 mph NW3.2 kmh NW 2.0 mph3.2 kmh 29.88 in1011.9 mb 0.00 in0.0 mm 0.00 in0.0 mm 0.14 in3.6 mm
02:54 PM 78.2°F25.7°C 68.4°F20.2°C 51% Calm Calm -- 29.89 in1012.2 mb 0.00 in0.0 mm 0.00 in0.0 mm 0.14 in3.6 mm
02:57 PM 78.9°F26.1°C 68.4°F20.2°C 51% 2.4 mph SW3.9 kmh SW 2.4 mph3.9 kmh 29.88 in1011.9 mb 0.00 in0.0 mm 0.00 in0.0 mm 0.14 in3.6 mm
03:00 PM 78.1°F25.6°C 68.6°F20.3°C 51% 4.4 mph WSW7.1 kmh WSW 4.5 mph7.2 kmh 29.88 in1011.9 mb 0.00 in0.0 mm 0.00 in0.0 mm 0.14 in3.6 mm
03:06 PM 77.6°F25.3°C 67.6°F19.8°C 50% 3.6 mph W5.8 kmh W 3.7 mph6.0 kmh 29.88 in1011.9 mb 0.00 in0.0 mm 0.00 in0.0 mm 0.14 in3.6 mm
03:09 PM 78.1°F25.6°C 67.8°F19.9°C 51% 1.6 mph SW2.6 kmh SW 1.6 mph2.6 kmh 29.88 in1011.9 mb 0.00 in0.0 mm 0.00 in0.0 mm 0.14 in3.6 mm
03:12 PM 77.6°F25.3°C 68.2°F20.1°C 51% Calm Calm -- 29.88 in1011.9 mb 0.00 in0.0 mm 0.00 in0.0 mm 0.14 in3.6 mm
03:15 PM 78.7°F25.9°C 67.2°F19.6°C 51% 2.8 mph NW4.5 kmh NW 2.8 mph4.5 kmh 29.88 in1011.9 mb 0.00 in0.0 mm 0.00 in0.0 mm 0.14 in3.6 mm
03:18 PM 77.9°F25.5°C 66.7°F19.3°C 50% 1.6 mph W2.6 kmh W 1.6 mph2.6 kmh 29.88 in1011.9 mb 0.00 in0.0 mm 0.00 in0.0 mm 0.14 in3.6 mm
03:24 PM 77.0°F25.0°C 67.5°F19.7°C 52% 0.4 mph NW0.6 kmh NW 0.4 mph0.6 kmh 29.88 in1011.9 mb 0.00 in0.0 mm 0.00 in0.0 mm 0.14 in3.6 mm
03:27 PM 76.1°F24.5°C 67.3°F19.6°C 51% 1.6 mph SW2.6 kmh SW 1.6 mph2.6 kmh 29.88 in1011.9 mb 0.00 in0.0 mm 0.00 in0.0 mm 0.14 in3.6 mm
03:30 PM 76.2°F24.6°C 67.0°F19.4°C 52% 2.8 mph NNW4.5 kmh NNW 2.8 mph4.5 kmh 29.88 in1011.9 mb 0.00 in0.0 mm 0.00 in0.0 mm 0.14 in3.6 mm
03:33 PM 76.7°F24.8°C 67.2°F19.6°C 52% 2.8 mph W4.5 kmh W 2.8 mph4.5 kmh 29.88 in1011.9 mb 0.00 in0.0 mm 0.00 in0.0 mm 0.14 in3.6 mm
03:36 PM 75.9°F24.4°C 67.7°F19.8°C 53% 1.2 mph WSW1.9 kmh WSW 1.2 mph1.9 kmh 29.88 in1011.9 mb 0.00 in0.0 mm 0.00 in0.0 mm 0.14 in3.6 mm
03:39 PM 75.9°F24.4°C 66.8°F19.3°C 52% 1.2 mph SW1.9 kmh SW 1.2 mph1.9 kmh 29.88 in1011.9 mb 0.00 in0.0 mm 0.00 in0.0 mm 0.14 in3.6 mm
03:42 PM 75.0°F23.9°C 67.1°F19.5°C 53% Calm Calm -- 29.88 in1011.9 mb 0.00 in0.0 mm 0.00 in0.0 mm 0.14 in3.6 mm
03:45 PM 74.2°F23.4°C 67.3°F19.6°C 53% 1.6 mph NNW2.6 kmh NNW 1.6 mph2.6 kmh 29.88 in1011.9 mb 0.00 in0.0 mm 0.00 in0.0 mm 0.14 in3.6 mm
03:48 PM 74.2°F23.4°C 67.5°F19.7°C 53% Calm Calm -- 29.88 in1011.9 mb 0.00 in0.0 mm 0.00 in0.0 mm 0.14 in3.6 mm
03:51 PM 73.9°F23.3°C 66.4°F19.1°C 53% 4.0 mph WNW6.4 kmh WNW 4.0 mph6.4 kmh 29.88 in1011.9 mb 0.00 in0.0 mm 0.00 in0.0 mm 0.14 in3.6 mm
03:54 PM 72.6°F22.6°C 67.7°F19.8°C 55% 2.0 mph NW3.2 kmh NW 2.0 mph3.2 kmh 29.88 in1011.9 mb 0.00 in0.0 mm 0.00 in0.0 mm 0.14 in3.6 mm
03:57 PM 71.6°F22.0°C 68.4°F20.2°C 57% 1.2 mph W1.9 kmh W 1.2 mph1.9 kmh 29.88 in1011.9 mb 0.00 in0.0 mm 0.00 in0.0 mm 0.16 in4.1 mm
04:00 PM 70.8°F21.6°C 68.6°F20.3°C 58% Calm Calm -- 29.88 in1011.9 mb 0.00 in0.0 mm 0.00 in0.0 mm 0.16 in4.1 mm
04:06 PM 70.0°F21.1°C 69.5°F20.8°C 62% 0.4 mph NW0.6 kmh NW 0.4 mph0.6 kmh 29.88 in1011.9 mb 0.00 in0.0 mm 0.00 in0.0 mm 0.16 in4.1 mm
04:09 PM 69.8°F21.0°C 69.4°F20.8°C 63% Calm Calm -- 29.88 in1011.9 mb 0.00 in0.0 mm 0.00 in0.0 mm 0.16 in4.1 mm
04:12 PM 69.8°F21.0°C 68.9°F20.5°C 63% Calm Calm -- 29.88 in1011.9 mb 0.00 in0.0 mm 0.00 in0.0 mm 0.16 in4.1 mm
04:15 PM 69.6°F20.9°C 69.4°F20.8°C 66% Calm Calm -- 29.88 in1011.9 mb 0.00 in0.0 mm 0.00 in0.0 mm 0.16 in4.1 mm
04:18 PM 70.8°F21.6°C 70.1°F21.2°C 67% 1.2 mph NNW1.9 kmh NNW 1.2 mph1.9 kmh 29.89 in1012.2 mb 0.00 in0.0 mm 0.00 in0.0 mm 0.18 in4.6 mm
04:21 PM 73.7°F23.2°C 70.8°F21.6°C 68% 2.4 mph NNW3.9 kmh NNW 2.4 mph3.9 kmh 29.89 in1012.2 mb 0.00 in0.0 mm 0.00 in0.0 mm 0.18 in4.6 mm
04:24 PM 73.6°F23.1°C 70.5°F21.4°C 67% 6.1 mph NNW9.8 kmh NNW 6.1 mph9.8 kmh 29.89 in1012.2 mb 0.00 in0.0 mm 0.00 in0.0 mm 0.18 in4.6 mm
04:27 PM 72.7°F22.6°C 70.3°F21.3°C 65% 4.9 mph W7.9 kmh W 4.9 mph7.9 kmh 29.89 in1012.2 mb 0.00 in0.0 mm 0.00 in0.0 mm 0.18 in4.6 mm
04:30 PM 73.6°F23.1°C 69.6°F20.9°C 65% 1.2 mph NNW1.9 kmh NNW 1.2 mph1.9 kmh 29.89 in1012.2 mb 0.00 in0.0 mm 0.00 in0.0 mm 0.18 in4.6 mm
04:36 PM 73.7°F23.2°C 69.2°F20.7°C 64% 1.6 mph NW2.6 kmh NW 1.6 mph2.6 kmh 29.90 in1012.5 mb 0.00 in0.0 mm 0.00 in0.0 mm 0.18 in4.6 mm
04:42 PM 74.4°F23.6°C 69.5°F20.8°C 65% 6.0 mph WSW9.7 kmh WSW 6.0 mph9.7 kmh 29.90 in1012.5 mb 0.00 in0.0 mm 0.00 in0.0 mm 0.18 in4.6 mm
04:45 PM 74.5°F23.6°C 69.8°F21.0°C 64% 2.8 mph NW4.5 kmh NW 2.9 mph4.7 kmh 29.90 in1012.5 mb 0.00 in0.0 mm 0.00 in0.0 mm 0.18 in4.6 mm
04:48 PM 74.2°F23.4°C 68.9°F20.5°C 64% 0.4 mph SW0.6 kmh SW 0.4 mph0.6 kmh 29.90 in1012.5 mb 0.00 in0.0 mm 0.00 in0.0 mm 0.18 in4.6 mm
04:51 PM 74.8°F23.8°C 68.7°F20.4°C 62% 2.4 mph NW3.9 kmh NW 2.4 mph3.9 kmh 29.90 in1012.5 mb 0.00 in0.0 mm 0.00 in0.0 mm 0.18 in4.6 mm
04:54 PM 74.4°F23.6°C 68.4°F20.2°C 63% 1.2 mph WNW1.9 kmh WNW 1.2 mph1.9 kmh 29.90 in1012.5 mb 0.00 in0.0 mm 0.00 in0.0 mm 0.18 in4.6 mm
04:57 PM 73.5°F23.1°C 68.4°F20.2°C 63% 3.2 mph NNW5.1 kmh NNW 3.3 mph5.3 kmh 29.90 in1012.5 mb 0.00 in0.0 mm 0.00 in0.0 mm 0.18 in4.6 mm
05:00 PM 73.3°F22.9°C 68.7°F20.4°C 65% 1.2 mph NW1.9 kmh NW 1.2 mph1.9 kmh 29.90 in1012.5 mb 0.00 in0.0 mm 0.00 in0.0 mm 0.18 in4.6 mm
05:03 PM 73.4°F23.0°C 69.1°F20.6°C 65% 1.2 mph WSW1.9 kmh WSW 1.2 mph1.9 kmh 29.90 in1012.5 mb 0.00 in0.0 mm 0.00 in0.0 mm 0.18 in4.6 mm
05:06 PM 72.8°F22.7°C 69.4°F20.8°C 65% 2.0 mph W3.2 kmh W 2.0 mph3.2 kmh 29.90 in1012.5 mb 0.00 in0.0 mm 0.00 in0.0 mm 0.18 in4.6 mm
05:09 PM 72.6°F22.6°C 68.8°F20.4°C 65% 2.0 mph WNW3.2 kmh WNW 2.0 mph3.2 kmh 29.90 in1012.5 mb 0.00 in0.0 mm 0.00 in0.0 mm 0.18 in4.6 mm
05:12 PM 72.7°F22.6°C 68.8°F20.4°C 65% Calm Calm -- 29.90 in1012.5 mb 0.00 in0.0 mm 0.00 in0.0 mm 0.18 in4.6 mm
05:15 PM 72.3°F22.4°C 69.3°F20.7°C 66% 0.4 mph NNW0.6 kmh NNW 0.4 mph0.6 kmh 29.90 in1012.5 mb 0.00 in0.0 mm 0.00 in0.0 mm 0.18 in4.6 mm
05:18 PM 72.3°F22.4°C 67.4°F19.7°C 63% 0.4 mph NW0.6 kmh NW 0.4 mph0.6 kmh 29.90 in1012.5 mb 0.00 in0.0 mm 0.00 in0.0 mm 0.18 in4.6 mm
05:21 PM 71.9°F22.2°C 67.4°F19.7°C 63% 2.8 mph NNW4.5 kmh NNW 2.9 mph4.7 kmh 29.90 in1012.5 mb 0.00 in0.0 mm 0.00 in0.0 mm 0.18 in4.6 mm
05:24 PM 71.2°F21.8°C 67.2°F19.6°C 62% 0.8 mph NW1.3 kmh NW 0.8 mph1.3 kmh 29.90 in1012.5 mb 0.00 in0.0 mm 0.00 in0.0 mm 0.18 in4.6 mm
05:27 PM 71.8°F22.1°C 67.6°F19.8°C 63% 0.8 mph NW1.3 kmh NW 0.8 mph1.3 kmh 29.90 in1012.5 mb 0.00 in0.0 mm 0.00 in0.0 mm 0.18 in4.6 mm
05:30 PM 71.4°F21.9°C 67.8°F19.9°C 64% Calm Calm -- 29.90 in1012.5 mb 0.00 in0.0 mm 0.00 in0.0 mm 0.18 in4.6 mm
05:33 PM 71.2°F21.8°C 67.2°F19.6°C 64% Calm Calm -- 29.90 in1012.5 mb 0.00 in0.0 mm 0.00 in0.0 mm 0.18 in4.6 mm
05:36 PM 70.9°F21.6°C 67.2°F19.6°C 64% Calm Calm -- 29.90 in1012.5 mb 0.00 in0.0 mm 0.00 in0.0 mm 0.18 in4.6 mm
05:39 PM 71.2°F21.8°C 68.2°F20.1°C 64% Calm Calm -- 29.90 in1012.5 mb 0.00 in0.0 mm 0.00 in0.0 mm 0.18 in4.6 mm
05:42 PM 70.9°F21.6°C 68.1°F20.1°C 65% 0.4 mph NNW0.6 kmh NNW 0.4 mph0.6 kmh 29.90 in1012.5 mb 0.00 in0.0 mm 0.00 in0.0 mm 0.18 in4.6 mm
05:45 PM 70.1°F21.2°C 68.4°F20.2°C 66% Calm Calm -- 29.90 in1012.5 mb 0.00 in0.0 mm 0.00 in0.0 mm 0.18 in4.6 mm
05:48 PM 69.9°F21.1°C 68.2°F20.1°C 65% Calm Calm -- 29.90 in1012.5 mb 0.00 in0.0 mm 0.00 in0.0 mm 0.18 in4.6 mm
05:51 PM 70.0°F21.1°C 68.4°F20.2°C 66% 0.8 mph WSW1.3 kmh WSW 0.8 mph1.3 kmh 29.90 in1012.5 mb 0.00 in0.0 mm 0.00 in0.0 mm 0.18 in4.6 mm
05:54 PM 69.9°F21.1°C 67.9°F19.9°C 66% Calm Calm -- 29.90 in1012.5 mb 0.00 in0.0 mm 0.00 in0.0 mm 0.18 in4.6 mm
05:57 PM 69.7°F20.9°C 68.1°F20.1°C 67% 0.4 mph WSW0.6 kmh WSW 0.4 mph0.6 kmh 29.90 in1012.5 mb 0.00 in0.0 mm 0.00 in0.0 mm 0.18 in4.6 mm
06:00 PM 70.0°F21.1°C 68.7°F20.4°C 68% 0.8 mph WSW1.3 kmh WSW 0.8 mph1.3 kmh 29.90 in1012.5 mb 0.00 in0.0 mm 0.00 in0.0 mm 0.18 in4.6 mm
06:06 PM 70.1°F21.2°C 68.1°F20.1°C 66% 0.8 mph NNW1.3 kmh NNW 0.8 mph1.3 kmh 29.90 in1012.5 mb 0.00 in0.0 mm 0.00 in0.0 mm 0.18 in4.6 mm
06:09 PM 70.3°F21.3°C 68.0°F20.0°C 66% 1.2 mph SW1.9 kmh SW 1.2 mph1.9 kmh 29.90 in1012.5 mb 0.00 in0.0 mm 0.00 in0.0 mm 0.18 in4.6 mm
06:12 PM 70.3°F21.3°C 67.1°F19.5°C 66% Calm Calm -- 29.90 in1012.5 mb 0.00 in0.0 mm 0.00 in0.0 mm 0.18 in4.6 mm
06:15 PM 70.7°F21.5°C 67.4°F19.7°C 67% 0.4 mph SW0.6 kmh SW 0.4 mph0.6 kmh 29.90 in1012.5 mb 0.00 in0.0 mm 0.00 in0.0 mm 0.18 in4.6 mm
06:21 PM 70.5°F21.4°C 68.1°F20.1°C 68% Calm Calm -- 29.90 in1012.5 mb 0.00 in0.0 mm 0.00 in0.0 mm 0.18 in4.6 mm
06:24 PM 70.4°F21.3°C 67.3°F19.6°C 66% Calm Calm -- 29.90 in1012.5 mb 0.00 in0.0 mm 0.00 in0.0 mm 0.18 in4.6 mm
06:27 PM 70.0°F21.1°C 67.9°F19.9°C 66% 1.2 mph SW1.9 kmh SW 1.2 mph1.9 kmh 29.90 in1012.5 mb 0.00 in0.0 mm 0.00 in0.0 mm 0.18 in4.6 mm
06:30 PM 70.0°F21.1°C 66.9°F19.4°C 65% 1.9 mph WNW3.1 kmh WNW 2.0 mph3.2 kmh 29.90 in1012.5 mb 0.00 in0.0 mm 0.00 in0.0 mm 0.18 in4.6 mm
06:36 PM 69.8°F21.0°C 67.4°F19.7°C 65% 2.4 mph SW3.9 kmh SW 2.4 mph3.9 kmh 29.90 in1012.5 mb 0.00 in0.0 mm 0.00 in0.0 mm 0.18 in4.6 mm
06:39 PM 69.8°F21.0°C 66.5°F19.2°C 65% 0.8 mph SW1.3 kmh SW 0.8 mph1.3 kmh 29.90 in1012.5 mb 0.00 in0.0 mm 0.00 in0.0 mm 0.18 in4.6 mm
06:42 PM 69.9°F21.1°C 66.8°F19.3°C 65% 0.8 mph NW1.3 kmh NW 0.8 mph1.3 kmh 29.91 in1012.9 mb 0.00 in0.0 mm 0.00 in0.0 mm 0.18 in4.6 mm
06:45 PM 69.8°F21.0°C 67.5°F19.7°C 66% 0.8 mph SW1.3 kmh SW 0.8 mph1.3 kmh 29.91 in1012.9 mb 0.00 in0.0 mm 0.00 in0.0 mm 0.18 in4.6 mm
06:48 PM 70.1°F21.2°C 66.2°F19.0°C 65% 0.8 mph NNW1.3 kmh NNW 0.8 mph1.3 kmh 29.91 in1012.9 mb 0.00 in0.0 mm 0.00 in0.0 mm 0.18 in4.6 mm
06:51 PM 70.1°F21.2°C 66.7°F19.3°C 64% 0.8 mph WSW1.3 kmh WSW 0.8 mph1.3 kmh 29.91 in1012.9 mb 0.00 in0.0 mm 0.00 in0.0 mm 0.18 in4.6 mm
06:54 PM 70.3°F21.3°C 66.1°F18.9°C 64% 1.2 mph SW1.9 kmh SW 1.2 mph1.9 kmh 29.91 in1012.9 mb 0.00 in0.0 mm 0.00 in0.0 mm 0.18 in4.6 mm
06:57 PM 69.9°F21.1°C 66.2°F19.0°C 65% 0.8 mph WSW1.3 kmh WSW 0.8 mph1.3 kmh 29.91 in1012.9 mb 0.00 in0.0 mm 0.00 in0.0 mm 0.18 in4.6 mm
07:00 PM 70.0°F21.1°C 66.8°F19.3°C 65% 1.2 mph SW1.9 kmh SW 1.2 mph1.9 kmh 29.91 in1012.9 mb 0.00 in0.0 mm 0.00 in0.0 mm 0.18 in4.6 mm
07:03 PM 70.0°F21.1°C 67.0°F19.4°C 65% 1.2 mph W1.9 kmh W 1.2 mph1.9 kmh 29.91 in1012.9 mb 0.00 in0.0 mm 0.00 in0.0 mm 0.18 in4.6 mm
07:06 PM 70.6°F21.4°C 66.3°F19.1°C 64% 2.8 mph W4.5 kmh W 2.8 mph4.5 kmh 29.91 in1012.9 mb 0.00 in0.0 mm 0.00 in0.0 mm 0.18 in4.6 mm
07:09 PM 70.8°F21.6°C 66.3°F19.1°C 64% 2.4 mph NNW3.9 kmh NNW 2.4 mph3.9 kmh 29.91 in1012.9 mb 0.00 in0.0 mm 0.00 in0.0 mm 0.18 in4.6 mm
07:12 PM 70.5°F21.4°C 67.0°F19.4°C 64% Calm Calm -- 29.92 in1013.2 mb 0.00 in0.0 mm 0.00 in0.0 mm 0.18 in4.6 mm
07:15 PM 70.6°F21.4°C 66.2°F19.0°C 64% 1.6 mph SW2.6 kmh SW 1.6 mph2.6 kmh 29.92 in1013.2 mb 0.00 in0.0 mm 0.00 in0.0 mm 0.18 in4.6 mm
07:18 PM 70.3°F21.3°C 66.7°F19.3°C 64% 0.8 mph WNW1.3 kmh WNW 0.8 mph1.3 kmh 29.92 in1013.2 mb 0.00 in0.0 mm 0.00 in0.0 mm 0.18 in4.6 mm
07:21 PM 69.8°F21.0°C 65.3°F18.5°C 63% Calm Calm -- 29.92 in1013.2 mb 0.00 in0.0 mm 0.00 in0.0 mm 0.18 in4.6 mm
07:24 PM 69.1°F20.6°C 66.5°F19.2°C 64% 2.8 mph SW4.5 kmh SW 2.9 mph4.7 kmh 29.92 in1013.2 mb 0.00 in0.0 mm 0.00 in0.0 mm 0.18 in4.6 mm
07:27 PM 68.9°F20.5°C 66.2°F19.0°C 64% Calm Calm -- 29.92 in1013.2 mb 0.00 in0.0 mm 0.00 in0.0 mm 0.18 in4.6 mm
07:30 PM 68.8°F20.4°C 66.7°F19.3°C 65% Calm Calm -- 29.92 in1013.2 mb 0.00 in0.0 mm 0.00 in0.0 mm 0.18 in4.6 mm
07:33 PM 67.8°F19.9°C 66.0°F18.9°C 65% 2.0 mph SW3.2 kmh SW 2.0 mph3.2 kmh 29.92 in1013.2 mb 0.00 in0.0 mm 0.00 in0.0 mm 0.18 in4.6 mm
07:39 PM 67.2°F19.6°C 65.5°F18.6°C 65% 0.4 mph SW0.6 kmh SW 0.4 mph0.6 kmh 29.92 in1013.2 mb 0.00 in0.0 mm 0.00 in0.0 mm 0.18 in4.6 mm
07:42 PM 66.5°F19.2°C 65.6°F18.7°C 66% 0.4 mph SW0.6 kmh SW 0.4 mph0.6 kmh 29.92 in1013.2 mb 0.00 in0.0 mm 0.00 in0.0 mm 0.18 in4.6 mm
07:45 PM 66.3°F19.1°C 66.0°F18.9°C 66% Calm Calm -- 29.92 in1013.2 mb 0.00 in0.0 mm 0.00 in0.0 mm 0.18 in4.6 mm
07:51 PM 66.1°F18.9°C 65.7°F18.7°C 68% Calm Calm -- 29.93 in1013.5 mb 0.00 in0.0 mm 0.00 in0.0 mm 0.18 in4.6 mm
07:54 PM 65.0°F18.3°C 65.9°F18.8°C 68% Calm Calm -- 29.93 in1013.5 mb 0.00 in0.0 mm 0.00 in0.0 mm 0.18 in4.6 mm
07:57 PM 64.9°F18.3°C 65.6°F18.7°C 67% Calm Calm -- 29.93 in1013.5 mb 0.00 in0.0 mm 0.00 in0.0 mm 0.18 in4.6 mm
08:00 PM 63.8°F17.7°C 66.2°F19.0°C 68% Calm Calm -- 29.94 in1013.9 mb 0.00 in0.0 mm 0.00 in0.0 mm 0.18 in4.6 mm
08:03 PM 63.5°F17.5°C 65.2°F18.4°C 68% Calm Calm -- 29.94 in1013.9 mb 0.00 in0.0 mm 0.00 in0.0 mm 0.18 in4.6 mm
08:06 PM 63.8°F17.7°C 65.5°F18.6°C 69% Calm Calm -- 29.94 in1013.9 mb 0.00 in0.0 mm 0.00 in0.0 mm 0.18 in4.6 mm
08:09 PM 63.2°F17.3°C 65.5°F18.6°C 68% 1.6 mph SW2.6 kmh SW 1.6 mph2.6 kmh 29.94 in1013.9 mb 0.00 in0.0 mm 0.00 in0.0 mm 0.18 in4.6 mm
08:12 PM 62.6°F17.0°C 65.1°F18.4°C 69% Calm Calm -- 29.94 in1013.9 mb 0.00 in0.0 mm 0.00 in0.0 mm 0.18 in4.6 mm
08:15 PM 62.9°F17.2°C 65.3°F18.5°C 69% 0.4 mph 0.6 kmh 0.4 mph0.6 kmh 29.94 in1013.9 mb 0.00 in0.0 mm 0.00 in0.0 mm 0.18 in4.6 mm
08:18 PM 63.1°F17.3°C 64.4°F18.0°C 69% Calm Calm -- 29.94 in1013.9 mb 0.00 in0.0 mm 0.00 in0.0 mm 0.18 in4.6 mm
08:21 PM 62.5°F16.9°C 65.6°F18.7°C 70% Calm Calm -- 29.94 in1013.9 mb 0.00 in0.0 mm 0.00 in0.0 mm 0.18 in4.6 mm
08:24 PM 62.5°F16.9°C 64.4°F18.0°C 70% Calm Calm -- 29.94 in1013.9 mb 0.00 in0.0 mm 0.00 in0.0 mm 0.18 in4.6 mm
08:27 PM 61.6°F16.4°C 64.3°F17.9°C 70% Calm Calm -- 29.94 in1013.9 mb 0.00 in0.0 mm 0.00 in0.0 mm 0.18 in4.6 mm
08:30 PM 62.3°F16.8°C 63.6°F17.6°C 70% Calm Calm -- 29.94 in1013.9 mb 0.00 in0.0 mm 0.00 in0.0 mm 0.18 in4.6 mm
08:33 PM 61.8°F16.6°C 64.2°F17.9°C 70% Calm Calm -- 29.94 in1013.9 mb 0.00 in0.0 mm 0.00 in0.0 mm 0.18 in4.6 mm
08:36 PM 62.0°F16.7°C 64.5°F18.1°C 71% Calm Calm -- 29.94 in1013.9 mb 0.00 in0.0 mm 0.00 in0.0 mm 0.18 in4.6 mm
08:39 PM 62.2°F16.8°C 64.4°F18.0°C 71% Calm Calm -- 29.94 in1013.9 mb 0.00 in0.0 mm 0.00 in0.0 mm 0.18 in4.6 mm
08:42 PM 62.3°F16.8°C 63.8°F17.7°C 71% Calm Calm -- 29.94 in1013.9 mb 0.00 in0.0 mm 0.00 in0.0 mm 0.18 in4.6 mm
08:45 PM 62.3°F16.8°C 64.2°F17.9°C 72% Calm Calm -- 29.94 in1013.9 mb 0.00 in0.0 mm 0.00 in0.0 mm 0.18 in4.6 mm
08:48 PM 61.5°F16.4°C 64.1°F17.8°C 71% 2.4 mph 3.9 kmh 2.4 mph3.9 kmh 29.94 in1013.9 mb 0.00 in0.0 mm 0.00 in0.0 mm 0.18 in4.6 mm
08:51 PM 62.4°F16.9°C 63.8°F17.7°C 72% 3.1 mph NNW5.0 kmh NNW 3.1 mph5.0 kmh 29.94 in1013.9 mb 0.00 in0.0 mm 0.00 in0.0 mm 0.18 in4.6 mm
08:54 PM 63.4°F17.4°C 64.4°F18.0°C 72% 1.2 mph NE1.9 kmh NE 1.2 mph1.9 kmh 29.94 in1013.9 mb 0.00 in0.0 mm 0.00 in0.0 mm 0.18 in4.6 mm
08:57 PM 62.6°F17.0°C 64.2°F17.9°C 73% Calm Calm -- 29.94 in1013.9 mb 0.00 in0.0 mm 0.00 in0.0 mm 0.18 in4.6 mm
09:00 PM 62.6°F17.0°C 64.3°F17.9°C 72% Calm Calm -- 29.94 in1013.9 mb 0.00 in0.0 mm 0.00 in0.0 mm 0.18 in4.6 mm
09:03 PM 62.3°F16.8°C 64.4°F18.0°C 73% Calm Calm -- 29.94 in1013.9 mb 0.00 in0.0 mm 0.00 in0.0 mm 0.18 in4.6 mm
09:06 PM 62.2°F16.8°C 64.6°F18.1°C 73% Calm Calm -- 29.94 in1013.9 mb 0.00 in0.0 mm 0.00 in0.0 mm 0.18 in4.6 mm
09:09 PM 61.6°F16.4°C 63.6°F17.6°C 72% 1.6 mph 2.6 kmh 1.6 mph2.6 kmh 29.95 in1014.2 mb 0.00 in0.0 mm 0.00 in0.0 mm 0.18 in4.6 mm
09:12 PM 62.3°F16.8°C 63.8°F17.7°C 72% 3.6 mph NW5.8 kmh NW 3.7 mph6.0 kmh 29.95 in1014.2 mb 0.00 in0.0 mm 0.00 in0.0 mm 0.18 in4.6 mm
09:15 PM 62.6°F17.0°C 63.6°F17.6°C 72% 2.0 mph WNW3.2 kmh WNW 2.0 mph3.2 kmh 29.95 in1014.2 mb 0.00 in0.0 mm 0.00 in0.0 mm 0.18 in4.6 mm
09:18 PM 63.2°F17.3°C 63.3°F17.4°C 71% 3.2 mph NNW5.1 kmh NNW 3.2 mph5.1 kmh 29.95 in1014.2 mb 0.00 in0.0 mm 0.00 in0.0 mm 0.18 in4.6 mm
09:21 PM 63.1°F17.3°C 62.8°F17.1°C 70% 1.9 mph 3.1 kmh 2.0 mph3.2 kmh 29.95 in1014.2 mb 0.00 in0.0 mm 0.00 in0.0 mm 0.18 in4.6 mm
09:24 PM 62.5°F16.9°C 62.9°F17.2°C 71% 0.8 mph 1.3 kmh 0.8 mph1.3 kmh 29.95 in1014.2 mb 0.00 in0.0 mm 0.00 in0.0 mm 0.18 in4.6 mm
09:27 PM 62.3°F16.8°C 63.0°F17.2°C 71% 1.6 mph 2.6 kmh 1.6 mph2.6 kmh 29.95 in1014.2 mb 0.00 in0.0 mm 0.00 in0.0 mm 0.18 in4.6 mm
09:30 PM 62.0°F16.7°C 63.2°F17.3°C 70% Calm Calm -- 29.95 in1014.2 mb 0.00 in0.0 mm 0.00 in0.0 mm 0.18 in4.6 mm
09:33 PM 61.7°F16.5°C 63.2°F17.3°C 72% Calm Calm -- 29.95 in1014.2 mb 0.00 in0.0 mm 0.00 in0.0 mm 0.18 in4.6 mm
09:36 PM 61.4°F16.3°C 63.2°F17.3°C 72% Calm Calm -- 29.95 in1014.2 mb 0.00 in0.0 mm 0.00 in0.0 mm 0.18 in4.6 mm
09:39 PM 61.5°F16.4°C 63.7°F17.6°C 73% Calm Calm -- 29.95 in1014.2 mb 0.00 in0.0 mm 0.00 in0.0 mm 0.18 in4.6 mm
09:42 PM 61.1°F16.2°C 63.3°F17.4°C 74% Calm Calm -- 29.95 in1014.2 mb 0.00 in0.0 mm 0.00 in0.0 mm 0.18 in4.6 mm
09:45 PM 60.6°F15.9°C 62.8°F17.1°C 72% Calm Calm -- 29.95 in1014.2 mb 0.00 in0.0 mm 0.00 in0.0 mm 0.18 in4.6 mm
09:48 PM 60.6°F15.9°C 63.0°F17.2°C 74% Calm Calm -- 29.95 in1014.2 mb 0.00 in0.0 mm 0.00 in0.0 mm 0.18 in4.6 mm
09:51 PM 60.2°F15.7°C 63.2°F17.3°C 74% Calm Calm -- 29.96 in1014.6 mb 0.00 in0.0 mm 0.00 in0.0 mm 0.18 in4.6 mm
09:54 PM 60.1°F15.6°C 63.0°F17.2°C 73% Calm Calm -- 29.94 in1013.9 mb 0.00 in0.0 mm 0.00 in0.0 mm 0.18 in4.6 mm
09:57 PM 59.9°F15.5°C 62.6°F17.0°C 73% Calm Calm -- 29.94 in1013.9 mb 0.00 in0.0 mm 0.00 in0.0 mm 0.18 in4.6 mm
10:00 PM 59.5°F15.3°C 62.5°F16.9°C 73% Calm Calm -- 29.94 in1013.9 mb 0.00 in0.0 mm 0.00 in0.0 mm 0.18 in4.6 mm
10:03 PM 59.8°F15.4°C 61.9°F16.6°C 72% 2.0 mph NE3.2 kmh NE 2.0 mph3.2 kmh 29.94 in1013.9 mb 0.00 in0.0 mm 0.00 in0.0 mm 0.18 in4.6 mm
10:06 PM 59.7°F15.4°C 61.4°F16.3°C 72% Calm Calm -- 29.94 in1013.9 mb 0.00 in0.0 mm 0.00 in0.0 mm 0.18 in4.6 mm
10:09 PM 59.7°F15.4°C 61.3°F16.3°C 72% Calm Calm -- 29.94 in1013.9 mb 0.00 in0.0 mm 0.00 in0.0 mm 0.18 in4.6 mm
10:12 PM 59.2°F15.1°C 61.2°F16.2°C 72% Calm Calm -- 29.95 in1014.2 mb 0.00 in0.0 mm 0.00 in0.0 mm 0.18 in4.6 mm
10:15 PM 59.0°F15.0°C 61.5°F16.4°C 73% Calm Calm -- 29.95 in1014.2 mb 0.00 in0.0 mm 0.00 in0.0 mm 0.18 in4.6 mm
10:18 PM 59.0°F15.0°C 61.4°F16.3°C 73% Calm Calm -- 29.95 in1014.2 mb 0.00 in0.0 mm 0.00 in0.0 mm 0.18 in4.6 mm
10:21 PM 58.8°F14.9°C 61.4°F16.3°C 73% Calm Calm -- 29.96 in1014.6 mb 0.00 in0.0 mm 0.00 in0.0 mm 0.18 in4.6 mm
10:24 PM 58.8°F14.9°C 61.6°F16.4°C 74% Calm Calm -- 29.96 in1014.6 mb 0.00 in0.0 mm 0.00 in0.0 mm 0.18 in4.6 mm
10:27 PM 58.4°F14.7°C 61.5°F16.4°C 74% Calm Calm -- 29.96 in1014.6 mb 0.00 in0.0 mm 0.00 in0.0 mm 0.18 in4.6 mm
10:30 PM 57.9°F14.4°C 60.9°F16.1°C 73% Calm Calm -- 29.96 in1014.6 mb 0.00 in0.0 mm 0.00 in0.0 mm 0.18 in4.6 mm
10:33 PM 58.1°F14.5°C 60.8°F16.0°C 73% Calm Calm -- 29.96 in1014.6 mb 0.00 in0.0 mm 0.00 in0.0 mm 0.18 in4.6 mm
10:36 PM 58.0°F14.4°C 60.9°F16.1°C 74% Calm Calm -- 29.96 in1014.6 mb 0.00 in0.0 mm 0.00 in0.0 mm 0.18 in4.6 mm
10:39 PM 58.0°F14.4°C 61.2°F16.2°C 74% Calm Calm -- 29.96 in1014.6 mb 0.00 in0.0 mm 0.00 in0.0 mm 0.18 in4.6 mm
10:42 PM 58.0°F14.4°C 61.0°F16.1°C 74% Calm Calm -- 29.96 in1014.6 mb 0.00 in0.0 mm 0.00 in0.0 mm 0.18 in4.6 mm
10:48 PM 56.8°F13.8°C 60.6°F15.9°C 73% Calm Calm -- 29.96 in1014.6 mb 0.00 in0.0 mm 0.00 in0.0 mm 0.18 in4.6 mm
10:51 PM 56.9°F13.8°C 60.3°F15.7°C 74% Calm Calm -- 29.96 in1014.6 mb 0.00 in0.0 mm 0.00 in0.0 mm 0.18 in4.6 mm
10:54 PM 57.1°F13.9°C 60.2°F15.7°C 73% Calm Calm -- 29.96 in1014.6 mb 0.00 in0.0 mm 0.00 in0.0 mm 0.18 in4.6 mm
10:57 PM 56.2°F13.4°C 60.4°F15.8°C 75% Calm Calm -- 29.96 in1014.6 mb 0.00 in0.0 mm 0.00 in0.0 mm 0.18 in4.6 mm
11:00 PM 56.6°F13.7°C 60.2°F15.7°C 74% Calm Calm -- 29.96 in1014.6 mb 0.00 in0.0 mm 0.00 in0.0 mm 0.00 in0.0 mm
11:03 PM 55.9°F13.3°C 59.5°F15.3°C 74% Calm Calm -- 29.96 in1014.6 mb 0.00 in0.0 mm 0.00 in0.0 mm 0.00 in0.0 mm
11:06 PM 55.6°F13.1°C 59.6°F15.3°C 74% Calm Calm -- 29.96 in1014.6 mb 0.00 in0.0 mm 0.00 in0.0 mm 0.00 in0.0 mm
11:09 PM 55.7°F13.2°C 59.1°F15.1°C 74% Calm Calm -- 29.96 in1014.6 mb 0.00 in0.0 mm 0.00 in0.0 mm 0.00 in0.0 mm
11:12 PM 55.7°F13.2°C 59.5°F15.3°C 74% Calm Calm -- 29.97 in1014.9 mb 0.00 in0.0 mm 0.00 in0.0 mm 0.00 in0.0 mm
11:15 PM 55.1°F12.8°C 58.9°F14.9°C 74% Calm Calm -- 29.97 in1014.9 mb 0.00 in0.0 mm 0.00 in0.0 mm 0.00 in0.0 mm
11:18 PM 55.1°F12.8°C 58.8°F14.9°C 74% Calm Calm -- 29.97 in1014.9 mb 0.00 in0.0 mm 0.00 in0.0 mm 0.00 in0.0 mm
11:21 PM 54.8°F12.7°C 58.8°F14.9°C 74% Calm Calm -- 29.97 in1014.9 mb 0.00 in0.0 mm 0.00 in0.0 mm 0.00 in0.0 mm
11:24 PM 55.9°F13.3°C 58.6°F14.8°C 74% Calm Calm -- 29.97 in1014.9 mb 0.00 in0.0 mm 0.00 in0.0 mm 0.00 in0.0 mm
11:27 PM 54.7°F12.6°C 58.6°F14.8°C 74% Calm Calm -- 29.97 in1014.9 mb 0.00 in0.0 mm 0.00 in0.0 mm 0.00 in0.0 mm
11:30 PM 55.2°F12.9°C 58.6°F14.8°C 74% Calm Calm -- 29.97 in1014.9 mb 0.00 in0.0 mm 0.00 in0.0 mm 0.00 in0.0 mm
11:33 PM 55.2°F12.9°C 58.7°F14.8°C 74% Calm Calm -- 29.97 in1014.9 mb 0.00 in0.0 mm 0.00 in0.0 mm 0.00 in0.0 mm
11:36 PM 55.0°F12.8°C 58.5°F14.7°C 74% Calm Calm -- 29.97 in1014.9 mb 0.00 in0.0 mm 0.00 in0.0 mm 0.00 in0.0 mm
11:39 PM 55.2°F12.9°C 58.9°F14.9°C 76% Calm Calm -- 29.97 in1014.9 mb 0.00 in0.0 mm 0.00 in0.0 mm 0.00 in0.0 mm
11:42 PM 55.0°F12.8°C 58.7°F14.8°C 76% Calm Calm -- 29.97 in1014.9 mb 0.00 in0.0 mm 0.00 in0.0 mm 0.00 in0.0 mm
11:45 PM 54.2°F12.3°C 58.2°F14.6°C 75% Calm Calm -- 29.97 in1014.9 mb 0.00 in0.0 mm 0.00 in0.0 mm 0.00 in0.0 mm
11:48 PM 54.3°F12.4°C 57.9°F14.4°C 74% Calm Calm -- 29.97 in1014.9 mb 0.00 in0.0 mm 0.00 in0.0 mm 0.00 in0.0 mm
11:51 PM 54.6°F12.6°C 57.6°F14.2°C 74% Calm Calm -- 29.97 in1014.9 mb 0.00 in0.0 mm 0.00 in0.0 mm 0.00 in0.0 mm
11:54 PM 54.6°F12.6°C 58.3°F14.6°C 76% Calm Calm -- 29.97 in1014.9 mb 0.00 in0.0 mm 0.00 in0.0 mm 0.00 in0.0 mm
11:57 PM 54.6°F12.6°C 58.1°F14.5°C 76% Calm Calm -- 29.97 in1014.9 mb 0.00 in0.0 mm 0.00 in0.0 mm 0.00 in0.0 mm